Observation data for Crowell on 06/16/2019      Previous  Date       Current Mesonet Observations  Soil Data  Daily Summary Page  Observations in Plain Language
KCR1 160500Z 15010KT 20/18 A2984 RMK A01 T01990177  RH  087%=      5-min Rain = 0
KCR1 160501Z 15011KT 20/18 A2984 RMK A01 T01990178  RH  088%=      5-min Rain = 0
KCR1 160502Z 16011KT 20/18 A2984 RMK A01 T01980178  RH  088%=      5-min Rain = 0
KCR1 160503Z 16012KT 20/18 A2984 RMK A01 T01980178  RH  088%=      5-min Rain = 0
KCR1 160504Z 17013KT 20/18 A2985 RMK A01 T01980177  RH  088%=      5-min Rain = 0
KCR1 160505Z 18014KT 20/18 A2986 RMK A01 T01980178  RH  088%=      5-min Rain = 0
KCR1 160506Z 18014KT 20/18 A2987 RMK A01 T01980178  RH  088%=      5-min Rain = 0
KCR1 160507Z 18013KT 20/18 A2988 RMK A01 T01970178  RH  089%=      5-min Rain = 0
KCR1 160508Z 19012KT 20/18 A2988 RMK A01 T01970177  RH  089%=      5-min Rain = 0
KCR1 160509Z 19010KT 20/18 A2988 RMK A01 T01960179  RH  089%=      5-min Rain = 0
KCR1 160510Z 19011KT 20/18 A2988 RMK A01 T01960178  RH  089%=      5-min Rain = 0
KCR1 160511Z 18009KT 20/18 A2988 RMK A01 T01960177  RH  089%=      5-min Rain = 0
KCR1 160512Z 18009KT 20/18 A2988 RMK A01 T01950176  RH  089%=      5-min Rain = 0
KCR1 160513Z 19008KT 20/18 A2988 RMK A01 T01950176  RH  089%=      5-min Rain = 0
KCR1 160514Z 19010KT 20/18 A2988 RMK A01 T01950176  RH  089%=      5-min Rain = 0
KCR1 160515Z 20011KT 20/18 A2989 RMK A01 T01950177  RH  089%=      5-min Rain = 0
KCR1 160516Z 19013KT 20/18 A2989 RMK A01 T01950178  RH  090%=      5-min Rain = 0
KCR1 160517Z 19012KT 20/18 A2989 RMK A01 T01950177  RH  090%=      5-min Rain = 0
KCR1 160518Z 19011KT 20/18 A2988 RMK A01 T01950177  RH  089%=      5-min Rain = 0
KCR1 160519Z 19010KT 20/18 A2988 RMK A01 T01950177  RH  089%=      5-min Rain = 0
KCR1 160520Z 20009G14KT 20/18 A2988 RMK A01 T01950177  RH  089%=      5-min Rain = 0
KCR1 160521Z 19007KT 20/18 A2988 RMK A01 T01950177  RH  089%=      5-min Rain = 0
KCR1 160522Z 20006KT 20/18 A2988 RMK A01 T01960178  RH  090%=      5-min Rain = 0
KCR1 160523Z 19006KT 20/18 A2988 RMK A01 T01950178  RH  089%=      5-min Rain = 0
KCR1 160524Z 18007KT 20/18 A2988 RMK A01 T01950178  RH  090%=      5-min Rain = 0
KCR1 160525Z 18006KT 20/18 A2988 RMK A01 T01950177  RH  089%=      5-min Rain = 0
KCR1 160526Z 19006KT 20/18 A2988 RMK A01 T01960179  RH  090%=      5-min Rain = 0
KCR1 160527Z 19005KT 20/18 A2988 RMK A01 T01960179  RH  090%=      5-min Rain = 0.01
KCR1 160528Z 20005KT 20/18 A2988 RMK A01 T01960179  RH  090%=      5-min Rain = 0
KCR1 160529Z 22005KT 20/18 A2989 RMK A01 T01960180  RH  091%=      5-min Rain = 0
KCR1 160530Z 24006KT 20/18 A2989 RMK A01 T01960179  RH  090%=      5-min Rain = 0
KCR1 160531Z 26005KT 20/18 A2989 RMK A01 T01960177  RH  089%=      5-min Rain = 0
KCR1 160532Z 26005KT 20/18 A2989 RMK A01 T01970178  RH  089%=      5-min Rain = 0
KCR1 160533Z 28004KT 20/18 A2989 RMK A01 T01970179  RH  089%=      5-min Rain = 0
KCR1 160534Z 29005KT 20/18 A2988 RMK A01 T01970179  RH  090%=      5-min Rain = 0
KCR1 160535Z 30005KT 20/18 A2988 RMK A01 T01970180  RH  090%=      5-min Rain = 0
KCR1 160536Z 32006KT 20/18 A2988 RMK A01 T01970181  RH  090%=      5-min Rain = 0
KCR1 160537Z 33007KT 20/18 A2988 RMK A01 T01970181  RH  091%=      5-min Rain = 0
KCR1 160538Z 35006KT 20/18 A2988 RMK A01 T01970181  RH  091%=      5-min Rain = 0
KCR1 160539Z 34007KT 20/18 A2988 RMK A01 T01970183  RH  091%=      5-min Rain = 0
KCR1 160540Z 33008KT 20/18 A2988 RMK A01 T01970182  RH  091%=      5-min Rain = 0
KCR1 160541Z 33010KT 20/18 A2988 RMK A01 T01970183  RH  091%=      5-min Rain = 0
KCR1 160542Z 33010KT 20/18 A2988 RMK A01 T01970182  RH  091%=      5-min Rain = 0
KCR1 160543Z 33012KT 20/18 A2988 RMK A01 T01970183  RH  092%=      5-min Rain = 0
KCR1 160544Z 34012KT 20/18 A2988 RMK A01 T01970183  RH  092%=      5-min Rain = 0
KCR1 160545Z 33012KT 20/18 A2988 RMK A01 T01970184  RH  092%=      5-min Rain = 0
KCR1 160546Z 33011KT 20/18 A2988 RMK A01 T01960182  RH  092%=      5-min Rain = 0
KCR1 160547Z 33011KT 20/18 A2988 RMK A01 T01960182  RH  091%=      5-min Rain = 0
KCR1 160548Z 34009KT 20/18 A2988 RMK A01 T01960182  RH  091%=      5-min Rain = 0
KCR1 160549Z 34008KT 20/18 A2988 RMK A01 T01960182  RH  092%=      5-min Rain = 0
KCR1 160550Z 34007KT 20/18 A2988 RMK A01 T01960181  RH  091%=      5-min Rain = 0
KCR1 160551Z 33007KT 20/18 A2988 RMK A01 T01950181  RH  092%=      5-min Rain = 0
KCR1 160552Z 33006KT 20/18 A2988 RMK A01 T01950182  RH  092%=      5-min Rain = 0
KCR1 160553Z 33007KT 20/18 A2987 RMK A01 T01960182  RH  092%=      5-min Rain = 0.01
KCR1 160554Z 33007KT 20/18 A2987 RMK A01 T01960183  RH  092%=      5-min Rain = 0
KCR1 160555Z 35007KT 20/18 A2986 RMK A01 T01950183  RH  092%=      5-min Rain = 0
KCR1 160556Z 01007KT 20/18 A2986 RMK A01 T01950182  RH  092%=      5-min Rain = 0
KCR1 160557Z 03008KT 20/18 A2985 RMK A01 T01950181  RH  092%=      5-min Rain = 0
KCR1 160558Z 04008KT 20/18 A2985 RMK A01 T01950181  RH  091%=      5-min Rain = 0
KCR1 160559Z 04008KT 20/18 A2985 RMK A01 T01960182  RH  091%=      5-min Rain = 0
KCR1 160600Z 04008KT 20/18 A2986 RMK A01 T01960183  RH  092%=      5-min Rain = 0
KCR1 160601Z 04007KT 20/18 A2986 RMK A01 T01960182  RH  091%=      5-min Rain = 0
KCR1 160602Z 05005KT 20/18 A2987 RMK A01 T01960182  RH  091%=      5-min Rain = 0
KCR1 160603Z 06004KT 20/18 A2987 RMK A01 T01960182  RH  092%=      5-min Rain = 0
KCR1 160604Z 06004KT 20/18 A2987 RMK A01 T01960182  RH  091%=      5-min Rain = 0
KCR1 160605Z 08004KT 20/18 A2987 RMK A01 T01960182  RH  091%=      5-min Rain = 0
KCR1 160606Z 11005KT 20/18 A2987 RMK A01 T01960182  RH  092%=      5-min Rain = 0
KCR1 160607Z 13009KT 20/18 A2986 RMK A01 T01960183  RH  092%=      5-min Rain = 0
KCR1 160608Z 14009KT 20/18 A2986 RMK A01 T01960184  RH  093%=      5-min Rain = 0
KCR1 160609Z 12009KT 20/18 A2986 RMK A01 T01960184  RH  093%=      5-min Rain = 0
KCR1 160610Z 11009KT 20/19 A2985 RMK A01 T01950185  RH  094%=      5-min Rain = 0
KCR1 160611Z 10007KT 20/18 A2985 RMK A01 T01950184  RH  093%=      5-min Rain = 0
KCR1 160612Z 09007KT 20/18 A2985 RMK A01 T01950184  RH  093%=      5-min Rain = 0
KCR1 160613Z 08005KT 20/18 A2984 RMK A01 T01950183  RH  093%=      5-min Rain = 0
KCR1 160614Z 07005KT 20/18 A2984 RMK A01 T01950183  RH  093%=      5-min Rain = 0
KCR1 160615Z 06006KT 20/18 A2984 RMK A01 T01950183  RH  093%=      5-min Rain = 0
KCR1 160616Z 07006KT 20/18 A2984 RMK A01 T01950182  RH  092%=      5-min Rain = 0
KCR1 160617Z 08006KT 20/18 A2983 RMK A01 T01950180  RH  091%=      5-min Rain = 0
KCR1 160618Z 08004KT 20/18 A2983 RMK A01 T01960178  RH  090%=      5-min Rain = 0
KCR1 160619Z 06004KT 20/18 A2983 RMK A01 T01960178  RH  089%=      5-min Rain = 0
KCR1 160620Z 05004KT 20/18 A2983 RMK A01 T01970179  RH  089%=      5-min Rain = 0
KCR1 160621Z 05004KT 20/18 A2983 RMK A01 T01970180  RH  090%=      5-min Rain = 0
KCR1 160622Z 06004KT 20/18 A2983 RMK A01 T01970180  RH  090%=      5-min Rain = 0
KCR1 160623Z 08004KT 20/18 A2983 RMK A01 T01980178  RH  088%=      5-min Rain = 0
KCR1 160624Z 09004KT 20/18 A2983 RMK A01 T01990178  RH  088%=      5-min Rain = 0
KCR1 160625Z 10004KT 20/18 A2984 RMK A01 T01990178  RH  087%=      5-min Rain = 0
KCR1 160626Z 11003KT 20/18 A2984 RMK A01 T02000179  RH  087%=      5-min Rain = 0
KCR1 160627Z 13004KT 20/18 A2984 RMK A01 T02000179  RH  087%=      5-min Rain = 0
KCR1 160628Z 16005KT 20/18 A2984 RMK A01 T02000180  RH  088%=      5-min Rain = 0
KCR1 160629Z 18006KT 20/18 A2985 RMK A01 T02000181  RH  089%=      5-min Rain = 0
KCR1 160630Z 19006KT 20/18 A2985 RMK A01 T02000183  RH  090%=      5-min Rain = 0
KCR1 160631Z 18006KT 20/18 A2985 RMK A01 T01990183  RH  090%=      5-min Rain = 0
KCR1 160632Z 17005KT 20/18 A2986 RMK A01 T01980181  RH  090%=      5-min Rain = 0.01
KCR1 160633Z 18004KT 20/18 A2986 RMK A01 T01980182  RH  091%=      5-min Rain = 0
KCR1 160634Z 19003KT 20/18 A2987 RMK A01 T01970182  RH  091%=      5-min Rain = 0
KCR1 160635Z 24003KT 20/18 A2987 RMK A01 T01970181  RH  091%=      5-min Rain = 0.01
KCR1 160636Z 29006KT 20/18 A2988 RMK A01 T01970182  RH  091%=      5-min Rain = 0
KCR1 160637Z 30011KT 20/18 A2988 RMK A01 T01970183  RH  092%=      5-min Rain = 0
KCR1 160638Z 30012KT 20/18 A2989 RMK A01 T01980184  RH  092%=      5-min Rain = 0
KCR1 160639Z 29010KT 20/18 A2989 RMK A01 T01980183  RH  091%=      5-min Rain = 0
KCR1 160640Z 29009KT 20/18 A2989 RMK A01 T01980183  RH  091%=      5-min Rain = 0
KCR1 160641Z 31008KT 20/18 A2988 RMK A01 T01970183  RH  091%=      5-min Rain = 0.01
KCR1 160642Z 32009KT 20/18 A2988 RMK A01 T01980183  RH  091%=      5-min Rain = 0
KCR1 160643Z 32010KT 20/18 A2988 RMK A01 T01980183  RH  091%=      5-min Rain = 0
KCR1 160644Z 33011KT 20/18 A2988 RMK A01 T01980184  RH  091%=      5-min Rain = 0
KCR1 160645Z 33010KT 20/18 A2987 RMK A01 T01980184  RH  091%=      5-min Rain = 0
KCR1 160646Z 34008KT 20/18 A2987 RMK A01 T01980184  RH  092%=      5-min Rain = 0
KCR1 160647Z 35009KT 20/18 A2987 RMK A01 T01980183  RH  091%=      5-min Rain = 0
KCR1 160648Z 34011KT 20/18 A2987 RMK A01 T01980183  RH  091%=      5-min Rain = 0
KCR1 160649Z 33011KT 20/18 A2986 RMK A01 T01980182  RH  091%=      5-min Rain = 0.01
KCR1 160650Z 33011KT 20/18 A2986 RMK A01 T01980183  RH  091%=      5-min Rain = 0
KCR1 160651Z 34010KT 20/18 A2986 RMK A01 T01980183  RH  091%=      5-min Rain = 0
KCR1 160652Z 34008KT 20/18 A2986 RMK A01 T01980182  RH  090%=      5-min Rain = 0
KCR1 160653Z 34008KT 20/18 A2986 RMK A01 T01980180  RH  089%=      5-min Rain = 0
KCR1 160654Z 33008KT 20/18 A2987 RMK A01 T01990180  RH  089%=      5-min Rain = 0
KCR1 160655Z 33007KT 20/18 A2987 RMK A01 T02000181  RH  089%=      5-min Rain = 0
KCR1 160656Z 34005KT 20/18 A2986 RMK A01 T02000182  RH  089%=      5-min Rain = 0
KCR1 160657Z 34008KT 20/18 A2987 RMK A01 T01990183  RH  090%=      5-min Rain = 0
KCR1 160658Z 34008KT 20/18 A2987 RMK A01 T01990182  RH  090%=      5-min Rain = 0
KCR1 160659Z 33006KT 20/18 A2986 RMK A01 T01990182  RH  090%=      5-min Rain = 0
KCR1 160700Z 34005KT 20/18 A2986 RMK A01 T01990182  RH  090%=      5-min Rain = 0
KCR1 160701Z 33004KT 20/18 A2987 RMK A01 T01990182  RH  090%=      5-min Rain = 0
KCR1 160702Z 34003KT 20/18 A2987 RMK A01 T01990182  RH  090%=      5-min Rain = 0
KCR1 160703Z 34004KT 20/18 A2987 RMK A01 T01990182  RH  090%=      5-min Rain = 0
KCR1 160704Z 33004KT 20/18 A2987 RMK A01 T01990183  RH  090%=      5-min Rain = 0
KCR1 160705Z 31004KT 20/18 A2988 RMK A01 T01990183  RH  091%=      5-min Rain = 0
KCR1 160706Z 30004KT 20/18 A2988 RMK A01 T01990183  RH  091%=      5-min Rain = 0
KCR1 160707Z 28005KT 20/18 A2989 RMK A01 T01990181  RH  090%=      5-min Rain = 0
KCR1 160708Z 27005KT 20/18 A2989 RMK A01 T01990182  RH  090%=      5-min Rain = 0
KCR1 160709Z 27005KT 20/18 A299 RMK A01 T02000183  RH  090%=      5-min Rain = 0
KCR1 160710Z 27005KT 20/18 A299 RMK A01 T01990183  RH  090%=      5-min Rain = 0
KCR1 160711Z 28004KT 20/18 A299 RMK A01 T01990183  RH  090%=      5-min Rain = 0
KCR1 160712Z 29004KT 20/18 A2989 RMK A01 T01990182  RH  090%=      5-min Rain = 0
KCR1 160713Z 29005KT 20/18 A2989 RMK A01 T01990182  RH  090%=      5-min Rain = 0
KCR1 160714Z 30004KT 20/18 A2989 RMK A01 T01990181  RH  089%=      5-min Rain = 0
KCR1 160715Z 30005KT 20/18 A2989 RMK A01 T02000183  RH  090%=      5-min Rain = 0
KCR1 160716Z 30007KT 20/18 A2989 RMK A01 T02010183  RH  090%=      5-min Rain = 0
KCR1 160717Z 31006KT 20/18 A2988 RMK A01 T02010183  RH  089%=      5-min Rain = 0
KCR1 160718Z 32005KT 20/18 A2988 RMK A01 T02010183  RH  089%=      5-min Rain = 0
KCR1 160719Z 33006KT 20/18 A2988 RMK A01 T02010183  RH  090%=      5-min Rain = 0.01
KCR1 160720Z 33007KT 20/18 A2988 RMK A01 T02000183  RH  090%=      5-min Rain = 0
KCR1 160721Z 34008KT 20/19 A2988 RMK A01 T02000185  RH  091%=      5-min Rain = 0
KCR1 160722Z 34008KT 20/19 A2988 RMK A01 T01990185  RH  091%=      5-min Rain = 0.01
KCR1 160723Z 34009KT 20/19 A2987 RMK A01 T01990185  RH  092%=      5-min Rain = 0
KCR1 160724Z 35008KT 20/19 A2987 RMK A01 T01980185  RH  092%=      5-min Rain = 0
KCR1 160725Z 35009KT 20/19 A2987 RMK A01 T01980185  RH  092%=      5-min Rain = 0
KCR1 160726Z 36009KT 20/19 A2987 RMK A01 T01980185  RH  092%=      5-min Rain = 0
KCR1 160727Z 35008KT 20/19 A2987 RMK A01 T01980185  RH  092%=      5-min Rain = 0
KCR1 160728Z 36008KT 20/19 A2987 RMK A01 T01970185  RH  092%=      5-min Rain = 0
KCR1 160729Z 35008KT 20/19 A2987 RMK A01 T01980185  RH  093%=      5-min Rain = 0
KCR1 160730Z 35007KT 20/19 A2987 RMK A01 T01980186  RH  093%=      5-min Rain = 0
KCR1 160731Z 35009KT 20/18 A2987 RMK A01 T01980184  RH  092%=      5-min Rain = 0
KCR1 160732Z 35009KT 20/18 A2987 RMK A01 T01980180  RH  089%=      5-min Rain = 0
KCR1 160733Z 35007KT 20/18 A2987 RMK A01 T02000181  RH  089%=      5-min Rain = 0
KCR1 160734Z 35006KT 20/18 A2987 RMK A01 T02000181  RH  089%=      5-min Rain = 0
KCR1 160735Z 35007KT 20/18 A2987 RMK A01 T02000182  RH  089%=      5-min Rain = 0
KCR1 160736Z 00007KT 20/18 A2987 RMK A01 T02000181  RH  089%=      5-min Rain = 0
KCR1 160737Z 00007KT 20/18 A2986 RMK A01 T02000181  RH  089%=      5-min Rain = 0
KCR1 160738Z 01007KT 20/18 A2986 RMK A01 T02000181  RH  089%=      5-min Rain = 0
KCR1 160739Z 01007KT 20/18 A2986 RMK A01 T01990179  RH  088%=      5-min Rain = 0
KCR1 160740Z 01007KT 20/18 A2986 RMK A01 T01990180  RH  089%=      5-min Rain = 0
KCR1 160741Z 01007KT 20/18 A2986 RMK A01 T01980180  RH  089%=      5-min Rain = 0
KCR1 160742Z 01007KT 20/18 A2986 RMK A01 T01980179  RH  089%=      5-min Rain = 0
KCR1 160743Z 01007KT 20/18 A2986 RMK A01 T01980179  RH  089%=      5-min Rain = 0
KCR1 160744Z 01007KT 20/18 A2986 RMK A01 T01980178  RH  089%=      5-min Rain = 0
KCR1 160745Z 01006KT 20/18 A2986 RMK A01 T01980178  RH  088%=      5-min Rain = 0
KCR1 160746Z 01005KT 20/18 A2986 RMK A01 T01980177  RH  088%=      5-min Rain = 0
KCR1 160747Z 00004KT 20/18 A2986 RMK A01 T01980178  RH  088%=      5-min Rain = 0
KCR1 160748Z 01003KT 20/18 A2986 RMK A01 T01980178  RH  088%=      5-min Rain = 0
KCR1 160749Z 02004KT 20/18 A2986 RMK A01 T01980178  RH  088%=      5-min Rain = 0
KCR1 160750Z 04002KT 20/18 A2986 RMK A01 T01980177  RH  088%=      5-min Rain = 0
KCR1 160751Z 07001KT 20/18 A2986 RMK A01 T01980176  RH  087%=      5-min Rain = 0
KCR1 160752Z 11001KT 20/18 A2987 RMK A01 T01980176  RH  087%=      5-min Rain = 0
KCR1 160753Z 13002KT 20/18 A2987 RMK A01 T01980176  RH  087%=      5-min Rain = 0
KCR1 160754Z 15003KT 20/18 A2987 RMK A01 T01980177  RH  087%=      5-min Rain = 0
KCR1 160755Z 16005KT 20/18 A2987 RMK A01 T01980178  RH  088%=      5-min Rain = 0
KCR1 160756Z 16006KT 20/18 A2987 RMK A01 T01970178  RH  089%=      5-min Rain = 0
KCR1 160757Z 16006KT 20/18 A2987 RMK A01 T01970179  RH  090%=      5-min Rain = 0
KCR1 160758Z 17006KT 20/18 A2987 RMK A01 T01960179  RH  090%=      5-min Rain = 0
KCR1 160759Z 17006KT 20/18 A2987 RMK A01 T01950179  RH  091%=      5-min Rain = 0
KCR1 160800Z 17006KT 20/18 A2986 RMK A01 T01950180  RH  091%=      5-min Rain = 0
KCR1 160801Z 18004KT 20/18 A2986 RMK A01 T01950181  RH  091%=      5-min Rain = 0
KCR1 160802Z 20003KT 20/18 A2986 RMK A01 T01950181  RH  092%=      5-min Rain = 0
KCR1 160803Z 21003KT 19/18 A2986 RMK A01 T01940181  RH  092%=      5-min Rain = 0
KCR1 160804Z 23003KT 19/18 A2986 RMK A01 T01930180  RH  092%=      5-min Rain = 0
KCR1 160805Z 25003KT 19/18 A2986 RMK A01 T01930181  RH  093%=      5-min Rain = 0
KCR1 160806Z 28002KT 19/18 A2986 RMK A01 T01930181  RH  093%=      5-min Rain = 0
KCR1 160807Z 28003KT 19/18 A2985 RMK A01 T01930181  RH  092%=      5-min Rain = 0
KCR1 160808Z 27003KT 19/18 A2985 RMK A01 T01920180  RH  093%=      5-min Rain = 0
KCR1 160809Z 26003KT 19/18 A2985 RMK A01 T01920180  RH  093%=      5-min Rain = 0
KCR1 160810Z 26004KT 19/18 A2985 RMK A01 T01920180  RH  093%=      5-min Rain = 0
KCR1 160811Z 25005KT 19/18 A2985 RMK A01 T01920180  RH  093%=      5-min Rain = 0
KCR1 160812Z 24005KT 19/18 A2985 RMK A01 T01910179  RH  093%=      5-min Rain = 0
KCR1 160813Z 25006KT 19/18 A2985 RMK A01 T01910179  RH  093%=      5-min Rain = 0
KCR1 160814Z 25005KT 19/18 A2985 RMK A01 T01910179  RH  093%=      5-min Rain = 0
KCR1 160815Z 25003KT 19/18 A2985 RMK A01 T01900179  RH  093%=      5-min Rain = 0
KCR1 160816Z 24003KT 19/18 A2984 RMK A01 T01900179  RH  093%=      5-min Rain = 0
KCR1 160817Z 25002KT 19/18 A2984 RMK A01 T01900179  RH  093%=      5-min Rain = 0
KCR1 160818Z 27001KT 19/18 A2984 RMK A01 T01900180  RH  094%=      5-min Rain = 0
KCR1 160819Z 30001KT 19/18 A2984 RMK A01 T01900180  RH  094%=      5-min Rain = 0
KCR1 160820Z 30002KT 19/18 A2984 RMK A01 T01900180  RH  094%=      5-min Rain = 0
KCR1 160821Z 30002KT 19/18 A2984 RMK A01 T01900180  RH  094%=      5-min Rain = 0
KCR1 160822Z 30002KT 19/18 A2984 RMK A01 T01900181  RH  094%=      5-min Rain = 0
KCR1 160823Z 28001KT 19/18 A2984 RMK A01 T01900181  RH  094%=      5-min Rain = 0
KCR1 160824Z 25002KT 19/18 A2984 RMK A01 T01900181  RH  094%=      5-min Rain = 0
KCR1 160825Z 24004KT 19/18 A2984 RMK A01 T01900181  RH  094%=      5-min Rain = 0
KCR1 160826Z 24006KT 19/18 A2984 RMK A01 T01900180  RH  094%=      5-min Rain = 0
KCR1 160827Z 23007KT 19/18 A2984 RMK A01 T01890180  RH  095%=      5-min Rain = 0
KCR1 160828Z 23007KT 19/18 A2984 RMK A01 T01890180  RH  095%=      5-min Rain = 0
KCR1 160829Z 24007KT 19/18 A2984 RMK A01 T01890181  RH  095%=      5-min Rain = 0
KCR1 160830Z 24006KT 19/18 A2984 RMK A01 T01880181  RH  095%=      5-min Rain = 0
KCR1 160831Z 25006KT 19/18 A2984 RMK A01 T01880180  RH  095%=      5-min Rain = 0
KCR1 160832Z 26004KT 19/18 A2984 RMK A01 T01880180  RH  095%=      5-min Rain = 0
KCR1 160833Z 28003KT 19/18 A2984 RMK A01 T01880180  RH  095%=      5-min Rain = 0
KCR1 160834Z 31003KT 19/18 A2984 RMK A01 T01880180  RH  095%=      5-min Rain = 0
KCR1 160835Z 33003KT 19/18 A2984 RMK A01 T01880180  RH  095%=      5-min Rain = 0
KCR1 160836Z 32003KT 19/18 A2984 RMK A01 T01880180  RH  095%=      5-min Rain = 0
KCR1 160837Z 34004KT 19/18 A2984 RMK A01 T01890180  RH  094%=      5-min Rain = 0
KCR1 160838Z 29003KT 19/18 A2984 RMK A01 T01890175  RH  092%=      5-min Rain = 0
KCR1 160839Z 25004KT 19/18 A2984 RMK A01 T01910178  RH  092%=      5-min Rain = 0
KCR1 160840Z 24005KT 19/18 A2984 RMK A01 T01910179  RH  093%=      5-min Rain = 0
KCR1 160841Z 24006KT 19/18 A2984 RMK A01 T01900180  RH  093%=      5-min Rain = 0
KCR1 160842Z 25005KT 19/18 A2984 RMK A01 T01900180  RH  094%=      5-min Rain = 0
KCR1 160843Z 24003KT 19/18 A2984 RMK A01 T01890179  RH  094%=      5-min Rain = 0
KCR1 160844Z 28003KT 19/18 A2984 RMK A01 T01890179  RH  094%=      5-min Rain = 0
KCR1 160845Z 27002KT 19/18 A2984 RMK A01 T01890178  RH  093%=      5-min Rain = 0
KCR1 160846Z 28003KT 19/18 A2984 RMK A01 T01890178  RH  093%=      5-min Rain = 0
KCR1 160847Z 28003KT 19/18 A2984 RMK A01 T01890177  RH  093%=      5-min Rain = 0
KCR1 160848Z 30003KT 19/18 A2984 RMK A01 T01890177  RH  093%=      5-min Rain = 0
KCR1 160849Z 32004KT 19/18 A2984 RMK A01 T01900177  RH  093%=      5-min Rain = 0
KCR1 160850Z 34004KT 19/18 A2984 RMK A01 T01900179  RH  093%=      5-min Rain = 0
KCR1 160851Z 35004KT 19/18 A2984 RMK A01 T01900179  RH  093%=      5-min Rain = 0
KCR1 160852Z 35003KT 19/18 A2984 RMK A01 T01900179  RH  093%=      5-min Rain = 0
KCR1 160853Z 34002KT 19/18 A2984 RMK A01 T01900179  RH  093%=      5-min Rain = 0
KCR1 160854Z 35000KT 19/18 A2984 RMK A01 T01900179  RH  093%=      5-min Rain = 0
KCR1 160855Z 21001KT 19/18 A2984 RMK A01 T01900179  RH  093%=      5-min Rain = 0
KCR1 160856Z 20003KT 19/18 A2984 RMK A01 T01900178  RH  093%=      5-min Rain = 0
KCR1 160857Z 20003KT 19/18 A2984 RMK A01 T01890178  RH  093%=      5-min Rain = 0
KCR1 160858Z 21002KT 19/18 A2984 RMK A01 T01880177  RH  093%=      5-min Rain = 0
KCR1 160859Z 21002KT 19/18 A2984 RMK A01 T01880177  RH  093%=      5-min Rain = 0
KCR1 160900Z 23001KT 19/18 A2984 RMK A01 T01880177  RH  093%=      5-min Rain = 0
KCR1 160901Z 22000KT 19/18 A2984 RMK A01 T01870177  RH  094%=      5-min Rain = 0
KCR1 160902Z 00000KT 19/18 A2984 RMK A01 T01870177  RH  094%=      5-min Rain = 0
KCR1 160903Z 04001KT 19/18 A2984 RMK A01 T01870176  RH  094%=      5-min Rain = 0
KCR1 160904Z 03002KT 19/18 A2984 RMK A01 T01860176  RH  094%=      5-min Rain = 0
KCR1 160905Z 02002KT 19/18 A2984 RMK A01 T01860176  RH  094%=      5-min Rain = 0
KCR1 160906Z 02003KT 19/18 A2984 RMK A01 T01860176  RH  094%=      5-min Rain = 0
KCR1 160907Z 02003KT 19/18 A2984 RMK A01 T01860176  RH  094%=      5-min Rain = 0
KCR1 160908Z 03003KT 19/18 A2984 RMK A01 T01860176  RH  094%=      5-min Rain = 0
KCR1 160909Z 02003KT 19/18 A2984 RMK A01 T01860176  RH  093%=      5-min Rain = 0
KCR1 160910Z 01002KT 19/18 A2984 RMK A01 T01870176  RH  093%=      5-min Rain = 0
KCR1 160911Z 00002KT 19/18 A2984 RMK A01 T01880177  RH  094%=      5-min Rain = 0
KCR1 160912Z 35001KT 19/18 A2984 RMK A01 T01880178  RH  094%=      5-min Rain = 0
KCR1 160913Z 32001KT 19/18 A2984 RMK A01 T01890179  RH  094%=      5-min Rain = 0
KCR1 160914Z 28001KT 19/18 A2984 RMK A01 T01890179  RH  094%=      5-min Rain = 0
KCR1 160915Z 29002KT 19/18 A2984 RMK A01 T01880178  RH  094%=      5-min Rain = 0
KCR1 160916Z 31002KT 19/18 A2984 RMK A01 T01870177  RH  094%=      5-min Rain = 0
KCR1 160917Z 34002KT 19/18 A2984 RMK A01 T01870177  RH  094%=      5-min Rain = 0
KCR1 160918Z 34002KT 19/18 A2984 RMK A01 T01870177  RH  094%=      5-min Rain = 0
KCR1 160919Z 00002KT 19/18 A2984 RMK A01 T01870176  RH  094%=      5-min Rain = 0
KCR1 160920Z 36003KT 19/18 A2984 RMK A01 T01870176  RH  093%=      5-min Rain = 0
KCR1 160921Z 00003KT 19/18 A2984 RMK A01 T01870175  RH  093%=      5-min Rain = 0
KCR1 160922Z 00004KT 19/18 A2984 RMK A01 T01880175  RH  092%=      5-min Rain = 0
KCR1 160923Z 00004KT 19/18 A2984 RMK A01 T01880176  RH  093%=      5-min Rain = 0
KCR1 160924Z 00004KT 19/18 A2984 RMK A01 T01880176  RH  092%=      5-min Rain = 0
KCR1 160925Z 35004KT 19/18 A2985 RMK A01 T01880175  RH  092%=      5-min Rain = 0
KCR1 160926Z 33004KT 19/17 A2985 RMK A01 T01880174  RH  091%=      5-min Rain = 0
KCR1 160927Z 32003KT 19/17 A2985 RMK A01 T01880172  RH  090%=      5-min Rain = 0
KCR1 160928Z 28003KT 19/17 A2985 RMK A01 T01880172  RH  090%=      5-min Rain = 0
KCR1 160929Z 27003KT 19/17 A2985 RMK A01 T01880171  RH  090%=      5-min Rain = 0
KCR1 160930Z 27004KT 19/17 A2985 RMK A01 T01880170  RH  090%=      5-min Rain = 0
KCR1 160931Z 27004KT 19/17 A2985 RMK A01 T01870171  RH  090%=      5-min Rain = 0
KCR1 160932Z 28005KT 19/17 A2985 RMK A01 T01870172  RH  091%=      5-min Rain = 0
KCR1 160933Z 29004KT 19/17 A2985 RMK A01 T01860172  RH  091%=      5-min Rain = 0
KCR1 160934Z 31004KT 19/17 A2985 RMK A01 T01860173  RH  092%=      5-min Rain = 0
KCR1 160935Z 33005KT 19/17 A2985 RMK A01 T01860174  RH  093%=      5-min Rain = 0
KCR1 160936Z 33006KT 19/18 A2985 RMK A01 T01860175  RH  093%=      5-min Rain = 0
KCR1 160937Z 34006KT 19/17 A2985 RMK A01 T01860173  RH  092%=      5-min Rain = 0
KCR1 160938Z 34005KT 19/17 A2985 RMK A01 T01870173  RH  092%=      5-min Rain = 0
KCR1 160939Z 33004KT 19/17 A2986 RMK A01 T01870172  RH  091%=      5-min Rain = 0
KCR1 160940Z 31002KT 19/17 A2986 RMK A01 T01870172  RH  091%=      5-min Rain = 0
KCR1 160941Z 25002KT 19/17 A2986 RMK A01 T01870172  RH  091%=      5-min Rain = 0
KCR1 160942Z 23003KT 19/17 A2986 RMK A01 T01870172  RH  091%=      5-min Rain = 0
KCR1 160943Z 22004KT 19/17 A2986 RMK A01 T01870172  RH  091%=      5-min Rain = 0
KCR1 160944Z 21003KT 19/17 A2986 RMK A01 T01860172  RH  091%=      5-min Rain = 0
KCR1 160945Z 22002KT 19/17 A2986 RMK A01 T01860173  RH  092%=      5-min Rain = 0
KCR1 160946Z 23001KT 19/17 A2986 RMK A01 T01850173  RH  093%=      5-min Rain = 0
KCR1 160947Z 35000KT 19/17 A2986 RMK A01 T01850173  RH  093%=      5-min Rain = 0
KCR1 160948Z 01001KT 18/17 A2986 RMK A01 T01840173  RH  093%=      5-min Rain = 0
KCR1 160949Z 01002KT 18/17 A2986 RMK A01 T01840174  RH  094%=      5-min Rain = 0
KCR1 160950Z 01002KT 18/17 A2986 RMK A01 T01840174  RH  094%=      5-min Rain = 0
KCR1 160951Z 01001KT 18/18 A2986 RMK A01 T01830175  RH  095%=      5-min Rain = 0
KCR1 160952Z 35000KT 18/18 A2986 RMK A01 T01840175  RH  095%=      5-min Rain = 0
KCR1 160953Z 22002KT 18/18 A2986 RMK A01 T01830176  RH  095%=      5-min Rain = 0
KCR1 160954Z 21003KT 18/18 A2986 RMK A01 T01830176  RH  095%=      5-min Rain = 0
KCR1 160955Z 21003KT 18/18 A2986 RMK A01 T01830176  RH  096%=      5-min Rain = 0
KCR1 160956Z 22002KT 18/18 A2986 RMK A01 T01830176  RH  096%=      5-min Rain = 0
KCR1 160957Z 24002KT 18/18 A2986 RMK A01 T01830176  RH  096%=      5-min Rain = 0
KCR1 160958Z 26001KT 18/18 A2986 RMK A01 T01830176  RH  096%=      5-min Rain = 0
KCR1 160959Z 30001KT 18/18 A2986 RMK A01 T01830175  RH  095%=      5-min Rain = 0
KCR1 161000Z 31002KT 18/18 A2986 RMK A01 T01830175  RH  095%=      5-min Rain = 0
KCR1 161001Z 31002KT 18/18 A2986 RMK A01 T01830175  RH  095%=      5-min Rain = 0
KCR1 161002Z 28002KT 18/18 A2986 RMK A01 T01830175  RH  095%=      5-min Rain = 0
KCR1 161003Z 25002KT 18/18 A2986 RMK A01 T01840175  RH  095%=      5-min Rain = 0
KCR1 161004Z 23004KT 18/17 A2986 RMK A01 T01840174  RH  094%=      5-min Rain = 0
KCR1 161005Z 23004KT 18/17 A2986 RMK A01 T01830174  RH  094%=      5-min Rain = 0
KCR1 161006Z 23004KT 18/17 A2986 RMK A01 T01830174  RH  094%=      5-min Rain = 0
KCR1 161007Z 24004KT 18/17 A2986 RMK A01 T01830174  RH  095%=      5-min Rain = 0
KCR1 161008Z 25003KT 18/17 A2986 RMK A01 T01820173  RH  094%=      5-min Rain = 0
KCR1 161009Z 28003KT 18/17 A2986 RMK A01 T01820173  RH  095%=      5-min Rain = 0
KCR1 161010Z 30003KT 18/17 A2986 RMK A01 T01810172  RH  094%=      5-min Rain = 0
KCR1 161011Z 31003KT 18/17 A2985 RMK A01 T01810172  RH  094%=      5-min Rain = 0
KCR1 161012Z 32003KT 18/17 A2985 RMK A01 T01820173  RH  094%=      5-min Rain = 0
KCR1 161013Z 32003KT 18/17 A2985 RMK A01 T01820173  RH  094%=      5-min Rain = 0
KCR1 161014Z 31002KT 18/17 A2985 RMK A01 T01830173  RH  094%=      5-min Rain = 0
KCR1 161015Z 29002KT 18/17 A2985 RMK A01 T01830174  RH  095%=      5-min Rain = 0
KCR1 161016Z 27002KT 18/18 A2985 RMK A01 T01830175  RH  095%=      5-min Rain = 0
KCR1 161017Z 25003KT 18/18 A2985 RMK A01 T01830175  RH  095%=      5-min Rain = 0
KCR1 161018Z 25002KT 18/18 A2985 RMK A01 T01840175  RH  095%=      5-min Rain = 0
KCR1 161019Z 25001KT 18/17 A2985 RMK A01 T01830174  RH  095%=      5-min Rain = 0
KCR1 161020Z 25001KT 18/17 A2985 RMK A01 T01830174  RH  095%=      5-min Rain = 0
KCR1 161021Z 26000KT 18/17 A2985 RMK A01 T01820174  RH  095%=      5-min Rain = 0
KCR1 161022Z 26001KT 18/17 A2985 RMK A01 T01830174  RH  095%=      5-min Rain = 0
KCR1 161023Z 26002KT 18/17 A2985 RMK A01 T01830174  RH  095%=      5-min Rain = 0
KCR1 161024Z 26002KT 18/17 A2985 RMK A01 T01820174  RH  095%=      5-min Rain = 0
KCR1 161025Z 26001KT 18/17 A2985 RMK A01 T01830174  RH  095%=      5-min Rain = 0
KCR1 161026Z 29001KT 18/17 A2985 RMK A01 T01830174  RH  095%=      5-min Rain = 0
KCR1 161027Z 30002KT 18/17 A2985 RMK A01 T01820174  RH  095%=      5-min Rain = 0
KCR1 161028Z 30004KT 18/17 A2985 RMK A01 T01830174  RH  095%=      5-min Rain = 0
KCR1 161029Z 31004KT 18/17 A2985 RMK A01 T01830174  RH  095%=      5-min Rain = 0
KCR1 161030Z 31004KT 18/18 A2985 RMK A01 T01830175  RH  095%=      5-min Rain = 0
KCR1 161031Z 32004KT 18/18 A2985 RMK A01 T01840176  RH  095%=      5-min Rain = 0
KCR1 161032Z 32003KT 18/18 A2986 RMK A01 T01840176  RH  095%=      5-min Rain = 0
KCR1 161033Z 31003KT 18/18 A2986 RMK A01 T01840176  RH  095%=      5-min Rain = 0
KCR1 161034Z 30002KT 18/18 A2986 RMK A01 T01840175  RH  095%=      5-min Rain = 0
KCR1 161035Z 28002KT 18/17 A2986 RMK A01 T01840174  RH  094%=      5-min Rain = 0
KCR1 161036Z 28001KT 18/17 A2986 RMK A01 T01840174  RH  094%=      5-min Rain = 0
KCR1 161037Z 29001KT 18/17 A2986 RMK A01 T01830173  RH  094%=      5-min Rain = 0
KCR1 161038Z 29000KT 18/17 A2986 RMK A01 T01840174  RH  094%=      5-min Rain = 0
KCR1 161039Z 00000KT 18/17 A2986 RMK A01 T01840174  RH  094%=      5-min Rain = 0
KCR1 161040Z 00000KT 18/17 A2986 RMK A01 T01830174  RH  094%=      5-min Rain = 0
KCR1 161041Z 00000KT 18/17 A2986 RMK A01 T01840174  RH  094%=      5-min Rain = 0
KCR1 161042Z 00000KT 18/17 A2986 RMK A01 T01830174  RH  094%=      5-min Rain = 0
KCR1 161043Z 29000KT 18/18 A2986 RMK A01 T01840175  RH  095%=      5-min Rain = 0
KCR1 161044Z 26001KT 18/18 A2986 RMK A01 T01840176  RH  095%=      5-min Rain = 0
KCR1 161045Z 28002KT 18/18 A2986 RMK A01 T01830175  RH  095%=      5-min Rain = 0
KCR1 161046Z 30002KT 18/18 A2986 RMK A01 T01830175  RH  095%=      5-min Rain = 0
KCR1 161047Z 31002KT 18/17 A2986 RMK A01 T01830174  RH  094%=      5-min Rain = 0
KCR1 161048Z 31001KT 18/17 A2986 RMK A01 T01830174  RH  094%=      5-min Rain = 0
KCR1 161049Z 27002KT 18/17 A2986 RMK A01 T01830174  RH  094%=      5-min Rain = 0
KCR1 161050Z 23003KT 18/17 A2986 RMK A01 T01830173  RH  094%=      5-min Rain = 0
KCR1 161051Z 22004KT 18/17 A2986 RMK A01 T01840174  RH  094%=      5-min Rain = 0
KCR1 161052Z 22004KT 18/17 A2986 RMK A01 T01830174  RH  094%=      5-min Rain = 0
KCR1 161053Z 21004KT 18/18 A2986 RMK A01 T01840175  RH  095%=      5-min Rain = 0
KCR1 161054Z 21003KT 18/17 A2985 RMK A01 T01830174  RH  094%=      5-min Rain = 0
KCR1 161055Z 21003KT 18/17 A2985 RMK A01 T01830174  RH  094%=      5-min Rain = 0
KCR1 161056Z 23003KT 18/17 A2986 RMK A01 T01830174  RH  094%=      5-min Rain = 0
KCR1 161057Z 23002KT 18/17 A2986 RMK A01 T01830174  RH  095%=      5-min Rain = 0
KCR1 161058Z 23002KT 18/17 A2986 RMK A01 T01830174  RH  095%=      5-min Rain = 0
KCR1 161059Z 24003KT 18/17 A2986 RMK A01 T01830174  RH  095%=      5-min Rain = 0
KCR1 161100Z 27003KT 18/17 A2986 RMK A01 T01820174  RH  095%=      5-min Rain = 0
KCR1 161101Z 28003KT 18/17 A2987 RMK A01 T01820173  RH  095%=      5-min Rain = 0
KCR1 161102Z 29004KT 18/17 A2987 RMK A01 T01820173  RH  095%=      5-min Rain = 0
KCR1 161103Z 29004KT 18/17 A2987 RMK A01 T01820174  RH  095%=      5-min Rain = 0
KCR1 161104Z 30004KT 18/17 A2987 RMK A01 T01820173  RH  095%=      5-min Rain = 0
KCR1 161105Z 30004KT 18/17 A2987 RMK A01 T01820173  RH  095%=      5-min Rain = 0
KCR1 161106Z 30004KT 18/17 A2987 RMK A01 T01820174  RH  095%=      5-min Rain = 0
KCR1 161107Z 29004KT 18/17 A2987 RMK A01 T01830174  RH  095%=      5-min Rain = 0
KCR1 161108Z 29005KT 18/17 A2987 RMK A01 T01830174  RH  095%=      5-min Rain = 0
KCR1 161109Z 29005KT 18/17 A2987 RMK A01 T01830174  RH  094%=      5-min Rain = 0
KCR1 161110Z 29005KT 18/17 A2987 RMK A01 T01840174  RH  094%=      5-min Rain = 0
KCR1 161111Z 30005KT 18/17 A2987 RMK A01 T01840174  RH  094%=      5-min Rain = 0
KCR1 161112Z 30005KT 18/17 A2987 RMK A01 T01840173  RH  093%=      5-min Rain = 0
KCR1 161113Z 31005KT 19/17 A2987 RMK A01 T01850173  RH  093%=      5-min Rain = 0
KCR1 161114Z 31005KT 19/17 A2987 RMK A01 T01850172  RH  092%=      5-min Rain = 0
KCR1 161115Z 31004KT 19/17 A2987 RMK A01 T01850172  RH  092%=      5-min Rain = 0
KCR1 161116Z 31004KT 19/17 A2987 RMK A01 T01850172  RH  092%=      5-min Rain = 0
KCR1 161117Z 31004KT 19/17 A2987 RMK A01 T01850173  RH  092%=      5-min Rain = 0
KCR1 161118Z 30004KT 19/17 A2987 RMK A01 T01850173  RH  092%=      5-min Rain = 0
KCR1 161119Z 31004KT 19/17 A2987 RMK A01 T01850171  RH  092%=      5-min Rain = 0
KCR1 161120Z 30004KT 19/17 A2987 RMK A01 T01850170  RH  091%=      5-min Rain = 0
KCR1 161121Z 31003KT 19/17 A2987 RMK A01 T01850170  RH  091%=      5-min Rain = 0
KCR1 161122Z 31003KT 19/17 A2987 RMK A01 T01850169  RH  090%=      5-min Rain = 0
KCR1 161123Z 31003KT 19/17 A2987 RMK A01 T01850169  RH  090%=      5-min Rain = 0
KCR1 161124Z 31003KT 19/17 A2987 RMK A01 T01860170  RH  090%=      5-min Rain = 0
KCR1 161125Z 30003KT 19/17 A2987 RMK A01 T01850169  RH  090%=      5-min Rain = 0
KCR1 161126Z 29003KT 19/17 A2987 RMK A01 T01860169  RH  090%=      5-min Rain = 0
KCR1 161127Z 29003KT 19/17 A2987 RMK A01 T01860169  RH  090%=      5-min Rain = 0
KCR1 161128Z 29004KT 19/17 A2988 RMK A01 T01860169  RH  090%=      5-min Rain = 0
KCR1 161129Z 30004KT 19/17 A2988 RMK A01 T01860170  RH  090%=      5-min Rain = 0
KCR1 161130Z 31005KT 19/17 A2988 RMK A01 T01860170  RH  090%=      5-min Rain = 0
KCR1 161131Z 31005KT 19/17 A2988 RMK A01 T01860170  RH  090%=      5-min Rain = 0
KCR1 161132Z 31004KT 19/17 A2988 RMK A01 T01860170  RH  090%=      5-min Rain = 0
KCR1 161133Z 30004KT 19/17 A2988 RMK A01 T01860170  RH  090%=      5-min Rain = 0
KCR1 161134Z 29004KT 19/17 A2988 RMK A01 T01850169  RH  090%=      5-min Rain = 0
KCR1 161135Z 29005KT 19/17 A2988 RMK A01 T01850168  RH  090%=      5-min Rain = 0
KCR1 161136Z 29005KT 19/17 A2988 RMK A01 T01850168  RH  090%=      5-min Rain = 0
KCR1 161137Z 28005KT 19/17 A2988 RMK A01 T01850168  RH  090%=      5-min Rain = 0
KCR1 161138Z 29005KT 19/17 A2988 RMK A01 T01850168  RH  090%=      5-min Rain = 0
KCR1 161139Z 29005KT 19/17 A2988 RMK A01 T01850169  RH  090%=      5-min Rain = 0
KCR1 161140Z 29005KT 18/17 A2988 RMK A01 T01840169  RH  091%=      5-min Rain = 0
KCR1 161141Z 29005KT 18/17 A2988 RMK A01 T01840168  RH  090%=      5-min Rain = 0
KCR1 161142Z 29005KT 18/17 A2988 RMK A01 T01840168  RH  090%=      5-min Rain = 0
KCR1 161143Z 29004KT 18/17 A2988 RMK A01 T01840167  RH  090%=      5-min Rain = 0
KCR1 161144Z 30004KT 18/17 A2988 RMK A01 T01840167  RH  090%=      5-min Rain = 0
KCR1 161145Z 30004KT 18/17 A2988 RMK A01 T01840167  RH  090%=      5-min Rain = 0
KCR1 161146Z 31004KT 18/17 A2988 RMK A01 T01840167  RH  090%=      5-min Rain = 0
KCR1 161147Z 31004KT 18/17 A2989 RMK A01 T01840167  RH  090%=      5-min Rain = 0
KCR1 161148Z 31003KT 18/17 A2989 RMK A01 T01840167  RH  090%=      5-min Rain = 0
KCR1 161149Z 31003KT 18/17 A2989 RMK A01 T01840167  RH  090%=      5-min Rain = 0
KCR1 161150Z 31003KT 19/17 A2989 RMK A01 T01850168  RH  090%=      5-min Rain = 0
KCR1 161151Z 31003KT 19/17 A2989 RMK A01 T01850167  RH  089%=      5-min Rain = 0
KCR1 161152Z 31003KT 19/17 A2989 RMK A01 T01850167  RH  089%=      5-min Rain = 0
KCR1 161153Z 33003KT 19/17 A2989 RMK A01 T01850167  RH  089%=      5-min Rain = 0
KCR1 161154Z 33003KT 19/17 A2989 RMK A01 T01860167  RH  089%=      5-min Rain = 0
KCR1 161155Z 33004KT 19/17 A2989 RMK A01 T01850167  RH  089%=      5-min Rain = 0
KCR1 161156Z 33005KT 19/17 A2989 RMK A01 T01860168  RH  089%=      5-min Rain = 0
KCR1 161157Z 32005KT 19/17 A2989 RMK A01 T01860168  RH  089%=      5-min Rain = 0
KCR1 161158Z 33005KT 19/17 A2989 RMK A01 T01860168  RH  089%=      5-min Rain = 0
KCR1 161159Z 33005KT 19/17 A2989 RMK A01 T01860168  RH  089%=      5-min Rain = 0
KCR1 161200Z 33006KT 19/17 A2989 RMK A01 T01870169  RH  090%=      5-min Rain = 0
KCR1 161201Z 33006KT 19/17 A2989 RMK A01 T01870170  RH  090%=      5-min Rain = 0
KCR1 161202Z 33007KT 19/17 A2989 RMK A01 T01870169  RH  090%=      5-min Rain = 0
KCR1 161203Z 32007KT 19/17 A2989 RMK A01 T01870169  RH  089%=      5-min Rain = 0
KCR1 161204Z 32007KT 19/17 A299 RMK A01 T01870168  RH  089%=      5-min Rain = 0
KCR1 161205Z 32007KT 19/17 A299 RMK A01 T01870168  RH  089%=      5-min Rain = 0
KCR1 161206Z 32006KT 19/17 A299 RMK A01 T01870168  RH  089%=      5-min Rain = 0
KCR1 161207Z 32006KT 19/17 A299 RMK A01 T01870168  RH  089%=      5-min Rain = 0
KCR1 161208Z 32007KT 19/17 A299 RMK A01 T01870167  RH  088%=      5-min Rain = 0
KCR1 161209Z 32007KT 19/17 A299 RMK A01 T01870167  RH  088%=      5-min Rain = 0
KCR1 161210Z 32007KT 19/17 A299 RMK A01 T01870166  RH  088%=      5-min Rain = 0
KCR1 161211Z 33006KT 19/17 A299 RMK A01 T01870167  RH  088%=      5-min Rain = 0
KCR1 161212Z 33007KT 19/17 A2989 RMK A01 T01870168  RH  088%=      5-min Rain = 0
KCR1 161213Z 34005KT 19/17 A2989 RMK A01 T01870167  RH  088%=      5-min Rain = 0
KCR1 161214Z 34005KT 19/17 A2989 RMK A01 T01870167  RH  088%=      5-min Rain = 0
KCR1 161215Z 34005KT 19/17 A2989 RMK A01 T01870167  RH  088%=      5-min Rain = 0
KCR1 161216Z 34004KT 19/17 A2989 RMK A01 T01870167  RH  088%=      5-min Rain = 0
KCR1 161217Z 34003KT 19/17 A2989 RMK A01 T01860167  RH  089%=      5-min Rain = 0
KCR1 161218Z 33003KT 19/17 A2989 RMK A01 T01860167  RH  089%=      5-min Rain = 0
KCR1 161219Z 32003KT 19/17 A2989 RMK A01 T01860167  RH  088%=      5-min Rain = 0
KCR1 161220Z 33003KT 19/17 A2989 RMK A01 T01860166  RH  088%=      5-min Rain = 0
KCR1 161221Z 33003KT 19/17 A2989 RMK A01 T01860166  RH  088%=      5-min Rain = 0
KCR1 161222Z 32004KT 19/17 A2989 RMK A01 T01860167  RH  088%=      5-min Rain = 0
KCR1 161223Z 34004KT 19/17 A299 RMK A01 T01860167  RH  088%=      5-min Rain = 0
KCR1 161224Z 34005KT 19/17 A299 RMK A01 T01870168  RH  089%=      5-min Rain = 0
KCR1 161225Z 34004KT 19/17 A299 RMK A01 T01870168  RH  089%=      5-min Rain = 0
KCR1 161226Z 34005KT 19/17 A299 RMK A01 T01870169  RH  090%=      5-min Rain = 0
KCR1 161227Z 34005KT 19/17 A2989 RMK A01 T01870169  RH  089%=      5-min Rain = 0
KCR1 161228Z 34006KT 19/17 A2989 RMK A01 T01870169  RH  089%=      5-min Rain = 0
KCR1 161229Z 34005KT 19/17 A2989 RMK A01 T01860169  RH  090%=      5-min Rain = 0
KCR1 161230Z 34006KT 19/17 A2989 RMK A01 T01860170  RH  090%=      5-min Rain = 0
KCR1 161231Z 34006KT 19/17 A299 RMK A01 T01860170  RH  090%=      5-min Rain = 0
KCR1 161232Z 34006KT 19/17 A299 RMK A01 T01860169  RH  090%=      5-min Rain = 0
KCR1 161233Z 33005KT 19/17 A299 RMK A01 T01850168  RH  090%=      5-min Rain = 0
KCR1 161234Z 34004KT 19/17 A299 RMK A01 T01850169  RH  090%=      5-min Rain = 0
KCR1 161235Z 35004KT 19/17 A299 RMK A01 T01850169  RH  090%=      5-min Rain = 0
KCR1 161236Z 35003KT 19/17 A299 RMK A01 T01850169  RH  090%=      5-min Rain = 0
KCR1 161237Z 34004KT 19/17 A299 RMK A01 T01850168  RH  090%=      5-min Rain = 0
KCR1 161238Z 35004KT 19/17 A299 RMK A01 T01850168  RH  090%=      5-min Rain = 0
KCR1 161239Z 35004KT 19/17 A2989 RMK A01 T01850169  RH  091%=      5-min Rain = 0
KCR1 161240Z 34005KT 19/17 A2989 RMK A01 T01850169  RH  091%=      5-min Rain = 0
KCR1 161241Z 34005KT 19/17 A2989 RMK A01 T01850169  RH  091%=      5-min Rain = 0
KCR1 161242Z 34004KT 19/17 A299 RMK A01 T01850170  RH  091%=      5-min Rain = 0
KCR1 161243Z 35003KT 19/17 A299 RMK A01 T01850170  RH  091%=      5-min Rain = 0
KCR1 161244Z 35003KT 19/17 A299 RMK A01 T01850170  RH  091%=      5-min Rain = 0
KCR1 161245Z 00003KT 19/17 A299 RMK A01 T01850170  RH  091%=      5-min Rain = 0
KCR1 161246Z 02001KT 19/17 A299 RMK A01 T01850169  RH  090%=      5-min Rain = 0
KCR1 161247Z 03001KT 19/17 A299 RMK A01 T01860170  RH  091%=      5-min Rain = 0
KCR1 161248Z 04001KT 19/17 A299 RMK A01 T01860170  RH  090%=      5-min Rain = 0
KCR1 161249Z 04001KT 19/17 A299 RMK A01 T01870169  RH  089%=      5-min Rain = 0
KCR1 161250Z 03001KT 19/17 A299 RMK A01 T01870168  RH  089%=      5-min Rain = 0
KCR1 161251Z 04001KT 19/17 A299 RMK A01 T01870169  RH  089%=      5-min Rain = 0
KCR1 161252Z 04001KT 19/17 A299 RMK A01 T01880170  RH  089%=      5-min Rain = 0
KCR1 161253Z 35000KT 19/17 A299 RMK A01 T01880169  RH  089%=      5-min Rain = 0
KCR1 161254Z 32001KT 19/17 A2991 RMK A01 T01880169  RH  088%=      5-min Rain = 0
KCR1 161255Z 31002KT 19/17 A2991 RMK A01 T01890168  RH  088%=      5-min Rain = 0
KCR1 161256Z 32002KT 19/17 A2991 RMK A01 T01890169  RH  088%=      5-min Rain = 0
KCR1 161257Z 32002KT 19/17 A2991 RMK A01 T01890169  RH  088%=      5-min Rain = 0
KCR1 161258Z 33002KT 19/17 A2991 RMK A01 T01890169  RH  088%=      5-min Rain = 0
KCR1 161259Z 34001KT 19/17 A2991 RMK A01 T01890171  RH  089%=      5-min Rain = 0
KCR1 161300Z 00002KT 19/17 A2991 RMK A01 T01900172  RH  089%=      5-min Rain = 0
KCR1 161301Z 01003KT 19/17 A2991 RMK A01 T01900170  RH  088%=      5-min Rain = 0
KCR1 161302Z 01003KT 19/17 A2991 RMK A01 T01900169  RH  088%=      5-min Rain = 0
KCR1 161303Z 36002KT 19/17 A2991 RMK A01 T01900167  RH  087%=      5-min Rain = 0
KCR1 161304Z 35002KT 19/17 A2991 RMK A01 T01910170  RH  088%=      5-min Rain = 0
KCR1 161305Z 34002KT 19/17 A2991 RMK A01 T01910173  RH  089%=      5-min Rain = 0
KCR1 161306Z 32001KT 19/17 A2991 RMK A01 T01920174  RH  089%=      5-min Rain = 0
KCR1 161307Z 31001KT 19/18 A2991 RMK A01 T01930175  RH  090%=      5-min Rain = 0
KCR1 161308Z 32001KT 19/17 A2991 RMK A01 T01930172  RH  088%=      5-min Rain = 0
KCR1 161309Z 33000KT 19/17 A2991 RMK A01 T01930170  RH  087%=      5-min Rain = 0
KCR1 161310Z 00000KT 19/17 A2991 RMK A01 T01940173  RH  088%=      5-min Rain = 0
KCR1 161311Z 35000KT 20/18 A2991 RMK A01 T01950175  RH  088%=      5-min Rain = 0
KCR1 161312Z 34001KT 20/17 A2991 RMK A01 T01950170  RH  086%=      5-min Rain = 0
KCR1 161313Z 33002KT 20/17 A2991 RMK A01 T01950170  RH  085%=      5-min Rain = 0
KCR1 161314Z 31000KT 20/17 A2991 RMK A01 T01960172  RH  086%=      5-min Rain = 0
KCR1 161315Z 28000KT 20/17 A2992 RMK A01 T01970174  RH  087%=      5-min Rain = 0
KCR1 161316Z 22000KT 20/17 A2991 RMK A01 T01980171  RH  085%=      5-min Rain = 0
KCR1 161317Z 33000KT 20/17 A2991 RMK A01 T01980171  RH  084%=      5-min Rain = 0
KCR1 161318Z 34002KT 20/17 A2991 RMK A01 T01990172  RH  084%=      5-min Rain = 0
KCR1 161319Z 34003KT 20/17 A2991 RMK A01 T02000172  RH  084%=      5-min Rain = 0
KCR1 161320Z 33003KT 20/18 A2991 RMK A01 T02000175  RH  086%=      5-min Rain = 0
KCR1 161321Z 33004KT 20/18 A2991 RMK A01 T02000175  RH  085%=      5-min Rain = 0
KCR1 161322Z 33004KT 20/18 A2991 RMK A01 T02010176  RH  086%=      5-min Rain = 0
KCR1 161323Z 33005KT 20/18 A2991 RMK A01 T02010175  RH  085%=      5-min Rain = 0
KCR1 161324Z 34005KT 20/18 A2991 RMK A01 T02010178  RH  086%=      5-min Rain = 0
KCR1 161325Z 34006KT 20/18 A2991 RMK A01 T02010176  RH  085%=      5-min Rain = 0
KCR1 161326Z 34007KT 20/18 A2991 RMK A01 T02020175  RH  085%=      5-min Rain = 0
KCR1 161327Z 35006KT 20/18 A2991 RMK A01 T02020177  RH  085%=      5-min Rain = 0
KCR1 161328Z 35007KT 20/18 A2991 RMK A01 T02030179  RH  086%=      5-min Rain = 0
KCR1 161329Z 35007KT 20/18 A2991 RMK A01 T02040179  RH  086%=      5-min Rain = 0
KCR1 161330Z 34007KT 20/18 A2991 RMK A01 T02040181  RH  086%=      5-min Rain = 0
KCR1 161331Z 35007KT 21/18 A2991 RMK A01 T02050181  RH  086%=      5-min Rain = 0
KCR1 161332Z 34008KT 21/18 A2992 RMK A01 T02050181  RH  086%=      5-min Rain = 0
KCR1 161333Z 34006KT 21/18 A2992 RMK A01 T02060180  RH  085%=      5-min Rain = 0
KCR1 161334Z 35006KT 21/18 A2991 RMK A01 T02070183  RH  086%=      5-min Rain = 0
KCR1 161335Z 35007KT 21/18 A2991 RMK A01 T02070180  RH  085%=      5-min Rain = 0
KCR1 161336Z 35008KT 21/18 A2991 RMK A01 T02070180  RH  085%=      5-min Rain = 0
KCR1 161337Z 35007KT 21/18 A2991 RMK A01 T02070181  RH  085%=      5-min Rain = 0
KCR1 161338Z 35009KT 21/18 A2991 RMK A01 T02080179  RH  084%=      5-min Rain = 0
KCR1 161339Z 35009KT 21/18 A2991 RMK A01 T02080179  RH  084%=      5-min Rain = 0
KCR1 161340Z 34008KT 21/18 A2991 RMK A01 T02080179  RH  084%=      5-min Rain = 0
KCR1 161341Z 34008KT 21/18 A2991 RMK A01 T02080181  RH  085%=      5-min Rain = 0
KCR1 161342Z 34009KT 21/18 A2992 RMK A01 T02070178  RH  083%=      5-min Rain = 0
KCR1 161343Z 34008KT 21/18 A2992 RMK A01 T02060179  RH  084%=      5-min Rain = 0
KCR1 161344Z 33008KT 21/18 A2992 RMK A01 T02060179  RH  085%=      5-min Rain = 0
KCR1 161345Z 34007KT 21/18 A2992 RMK A01 T02050179  RH  085%=      5-min Rain = 0
KCR1 161346Z 34006KT 20/18 A2992 RMK A01 T02040181  RH  086%=      5-min Rain = 0
KCR1 161347Z 34008KT 20/18 A2992 RMK A01 T02040181  RH  086%=      5-min Rain = 0
KCR1 161348Z 34008KT 20/18 A2992 RMK A01 T02040180  RH  086%=      5-min Rain = 0
KCR1 161349Z 34010KT 20/18 A2992 RMK A01 T02030179  RH  086%=      5-min Rain = 0
KCR1 161350Z 35010KT 20/18 A2992 RMK A01 T02020177  RH  085%=      5-min Rain = 0
KCR1 161351Z 34010KT 20/18 A2992 RMK A01 T02010177  RH  086%=      5-min Rain = 0
KCR1 161352Z 35010KT 20/18 A2992 RMK A01 T02000176  RH  086%=      5-min Rain = 0
KCR1 161353Z 34010KT 20/18 A2992 RMK A01 T02000177  RH  087%=      5-min Rain = 0
KCR1 161354Z 34009KT 20/18 A2992 RMK A01 T01990178  RH  087%=      5-min Rain = 0
KCR1 161355Z 34010KT 20/18 A2992 RMK A01 T01990178  RH  087%=      5-min Rain = 0
KCR1 161356Z 34008KT 20/18 A2992 RMK A01 T01990178  RH  088%=      5-min Rain = 0
KCR1 161357Z 34009KT 20/18 A2992 RMK A01 T01990180  RH  088%=      5-min Rain = 0
KCR1 161358Z 34009KT 20/18 A2992 RMK A01 T01990178  RH  088%=      5-min Rain = 0
KCR1 161359Z 34007KT 20/18 A2992 RMK A01 T01990179  RH  088%=      5-min Rain = 0
KCR1 161400Z 34007KT 20/18 A2992 RMK A01 T01990181  RH  089%=      5-min Rain = 0
KCR1 161401Z 35009KT 20/18 A2992 RMK A01 T02000180  RH  088%=      5-min Rain = 0
KCR1 161402Z 34009KT 20/18 A2992 RMK A01 T02000178  RH  087%=      5-min Rain = 0
KCR1 161403Z 34009KT 20/18 A2992 RMK A01 T02000176  RH  086%=      5-min Rain = 0
KCR1 161404Z 34009KT 20/18 A2992 RMK A01 T02000176  RH  086%=      5-min Rain = 0
KCR1 161405Z 35007KT 20/18 A2992 RMK A01 T02000177  RH  087%=      5-min Rain = 0
KCR1 161406Z 36006KT 20/18 A2992 RMK A01 T02000180  RH  088%=      5-min Rain = 0
KCR1 161407Z 35009KT 20/18 A2992 RMK A01 T02010179  RH  087%=      5-min Rain = 0
KCR1 161408Z 35008KT 20/18 A2992 RMK A01 T02000177  RH  086%=      5-min Rain = 0
KCR1 161409Z 35008KT 20/18 A2992 RMK A01 T02000177  RH  086%=      5-min Rain = 0
KCR1 161410Z 35008KT 20/18 A2992 RMK A01 T02000177  RH  086%=      5-min Rain = 0
KCR1 161411Z 35008KT 20/18 A2992 RMK A01 T02000177  RH  086%=      5-min Rain = 0
KCR1 161412Z 00006KT 20/18 A2992 RMK A01 T02010177  RH  086%=      5-min Rain = 0
KCR1 161413Z 00006KT 20/18 A2992 RMK A01 T02000177  RH  087%=      5-min Rain = 0
KCR1 161414Z 36006KT 20/18 A2992 RMK A01 T02010179  RH  087%=      5-min Rain = 0
KCR1 161415Z 00006KT 20/18 A2992 RMK A01 T02010179  RH  087%=      5-min Rain = 0
KCR1 161416Z 00006KT 20/18 A2992 RMK A01 T02020178  RH  086%=      5-min Rain = 0
KCR1 161417Z 01006KT 20/18 A2992 RMK A01 T02020177  RH  086%=      5-min Rain = 0
KCR1 161418Z 00006KT 20/18 A2992 RMK A01 T02030179  RH  086%=      5-min Rain = 0
KCR1 161419Z 01006KT 20/18 A2992 RMK A01 T02030179  RH  086%=      5-min Rain = 0
KCR1 161420Z 02007KT 20/18 A2993 RMK A01 T02030180  RH  087%=      5-min Rain = 0
KCR1 161421Z 01009KT 20/18 A2993 RMK A01 T02040177  RH  085%=      5-min Rain = 0
KCR1 161422Z 01008KT 20/18 A2993 RMK A01 T02040176  RH  084%=      5-min Rain = 0
KCR1 161423Z 02008KT 20/18 A2993 RMK A01 T02040176  RH  084%=      5-min Rain = 0
KCR1 161424Z 02007KT 20/18 A2993 RMK A01 T02040177  RH  084%=      5-min Rain = 0
KCR1 161425Z 02006KT 20/18 A2993 RMK A01 T02040178  RH  085%=      5-min Rain = 0
KCR1 161426Z 03007KT 20/18 A2993 RMK A01 T02040177  RH  084%=      5-min Rain = 0
KCR1 161427Z 02008KT 21/18 A2993 RMK A01 T02050177  RH  084%=      5-min Rain = 0
KCR1 161428Z 03007KT 21/18 A2993 RMK A01 T02060179  RH  084%=      5-min Rain = 0
KCR1 161429Z 03008KT 21/18 A2993 RMK A01 T02070179  RH  084%=      5-min Rain = 0
KCR1 161430Z 03008KT 21/18 A2993 RMK A01 T02080180  RH  084%=      5-min Rain = 0
KCR1 161431Z 03009KT 21/18 A2993 RMK A01 T02090178  RH  082%=      5-min Rain = 0
KCR1 161432Z 03008KT 21/18 A2993 RMK A01 T02090178  RH  082%=      5-min Rain = 0
KCR1 161433Z 03008KT 21/18 A2993 RMK A01 T02090178  RH  083%=      5-min Rain = 0
KCR1 161434Z 02009KT 21/18 A2993 RMK A01 T02090176  RH  081%=      5-min Rain = 0
KCR1 161435Z 03008KT 21/18 A2993 RMK A01 T02100178  RH  082%=      5-min Rain = 0
KCR1 161436Z 03008KT 21/18 A2993 RMK A01 T02100178  RH  082%=      5-min Rain = 0
KCR1 161437Z 03008KT 21/18 A2994 RMK A01 T02120179  RH  081%=      5-min Rain = 0
KCR1 161438Z 04009KT 21/18 A2994 RMK A01 T02130179  RH  081%=      5-min Rain = 0
KCR1 161439Z 04010KT 21/18 A2994 RMK A01 T02130177  RH  080%=      5-min Rain = 0
KCR1 161440Z 04010KT 21/18 A2994 RMK A01 T02130179  RH  081%=      5-min Rain = 0
KCR1 161441Z 04008KT 21/18 A2994 RMK A01 T02130179  RH  081%=      5-min Rain = 0
KCR1 161442Z 04009KT 21/18 A2994 RMK A01 T02140180  RH  081%=      5-min Rain = 0
KCR1 161443Z 05010KT 22/18 A2994 RMK A01 T02150178  RH  080%=      5-min Rain = 0
KCR1 161444Z 04010KT 22/18 A2994 RMK A01 T02150177  RH  079%=      5-min Rain = 0
KCR1 161445Z 04009KT 22/18 A2994 RMK A01 T02150179  RH  080%=      5-min Rain = 0
KCR1 161446Z 05010KT 22/18 A2993 RMK A01 T02150180  RH  080%=      5-min Rain = 0
KCR1 161447Z 05009KT 22/18 A2993 RMK A01 T02160179  RH  079%=      5-min Rain = 0
KCR1 161448Z 04011KT 22/18 A2993 RMK A01 T02180179  RH  078%=      5-min Rain = 0
KCR1 161449Z 05009KT 22/18 A2993 RMK A01 T02190182  RH  079%=      5-min Rain = 0
KCR1 161450Z 05011KT 22/18 A2993 RMK A01 T02210180  RH  077%=      5-min Rain = 0
KCR1 161451Z 05011KT 22/18 A2993 RMK A01 T02230179  RH  076%=      5-min Rain = 0
KCR1 161452Z 03010KT 22/18 A2993 RMK A01 T02230181  RH  077%=      5-min Rain = 0
KCR1 161453Z 04011KT 22/18 A2993 RMK A01 T02240178  RH  075%=      5-min Rain = 0
KCR1 161454Z 04010KT 23/18 A2993 RMK A01 T02250179  RH  075%=      5-min Rain = 0
KCR1 161455Z 04010KT 23/18 A2993 RMK A01 T02250179  RH  075%=      5-min Rain = 0
KCR1 161456Z 05010KT 23/18 A2993 RMK A01 T02250182  RH  076%=      5-min Rain = 0
KCR1 161457Z 04012KT 23/18 A2994 RMK A01 T02270178  RH  074%=      5-min Rain = 0
KCR1 161458Z 04011KT 23/18 A2994 RMK A01 T02270178  RH  074%=      5-min Rain = 0
KCR1 161459Z 03011KT 23/18 A2994 RMK A01 T02270177  RH  074%=      5-min Rain = 0
KCR1 161500Z 03011KT 23/18 A2994 RMK A01 T02270177  RH  073%=      5-min Rain = 0
KCR1 161501Z 04011KT 23/18 A2994 RMK A01 T02270176  RH  073%=      5-min Rain = 0
KCR1 161502Z 04008KT 23/18 A2994 RMK A01 T02270178  RH  073%=      5-min Rain = 0
KCR1 161503Z 04010KT 23/18 A2994 RMK A01 T02290175  RH  072%=      5-min Rain = 0
KCR1 161504Z 04008KT 23/18 A2994 RMK A01 T02290175  RH  071%=      5-min Rain = 0
KCR1 161505Z 04008KT 23/18 A2994 RMK A01 T02290177  RH  072%=      5-min Rain = 0
KCR1 161506Z 03010KT 23/18 A2994 RMK A01 T02280177  RH  073%=      5-min Rain = 0
KCR1 161507Z 03010KT 23/17 A2994 RMK A01 T02270173  RH  071%=      5-min Rain = 0
KCR1 161508Z 03011KT 23/17 A2994 RMK A01 T02260172  RH  072%=      5-min Rain = 0
KCR1 161509Z 03008KT 23/17 A2994 RMK A01 T02250170  RH  071%=      5-min Rain = 0
KCR1 161510Z 03008KT 22/17 A2994 RMK A01 T02240174  RH  073%=      5-min Rain = 0
KCR1 161511Z 02009KT 23/17 A2994 RMK A01 T02250173  RH  072%=      5-min Rain = 0
KCR1 161512Z 02008KT 23/17 A2994 RMK A01 T02270173  RH  072%=      5-min Rain = 0
KCR1 161513Z 03008KT 23/18 A2994 RMK A01 T02290177  RH  073%=      5-min Rain = 0
KCR1 161514Z 03010KT 23/18 A2994 RMK A01 T02300175  RH  071%=      5-min Rain = 0
KCR1 161515Z 03009KT 23/18 A2994 RMK A01 T02320179  RH  072%=      5-min Rain = 0
KCR1 161516Z 03011KT 23/18 A2994 RMK A01 T02340176  RH  070%=      5-min Rain = 0
KCR1 161517Z 03011KT 23/18 A2994 RMK A01 T02340175  RH  069%=      5-min Rain = 0
KCR1 161518Z 03012KT 23/17 A2994 RMK A01 T02340174  RH  069%=      5-min Rain = 0
KCR1 161519Z 03010KT 23/18 A2994 RMK A01 T02340175  RH  069%=      5-min Rain = 0
KCR1 161520Z 02009KT 23/18 A2994 RMK A01 T02330177  RH  070%=      5-min Rain = 0
KCR1 161521Z 02009KT 23/18 A2994 RMK A01 T02340176  RH  070%=      5-min Rain = 0
KCR1 161522Z 02008KT 23/18 A2994 RMK A01 T02340177  RH  070%=      5-min Rain = 0
KCR1 161523Z 01009KT 24/18 A2994 RMK A01 T02350178  RH  070%=      5-min Rain = 0
KCR1 161524Z 01009KT 24/18 A2994 RMK A01 T02350177  RH  070%=      5-min Rain = 0
KCR1 161525Z 02010KT 24/18 A2994 RMK A01 T02360181  RH  071%=      5-min Rain = 0
KCR1 161526Z 04011KT 24/18 A2994 RMK A01 T02370179  RH  070%=      5-min Rain = 0
KCR1 161527Z 03010KT 24/18 A2994 RMK A01 T02370175  RH  068%=      5-min Rain = 0
KCR1 161528Z 02008KT 24/18 A2994 RMK A01 T02350175  RH  069%=      5-min Rain = 0
KCR1 161529Z 02007KT 23/18 A2994 RMK A01 T02340177  RH  070%=      5-min Rain = 0
KCR1 161530Z 02010KT 24/18 A2994 RMK A01 T02350181  RH  072%=      5-min Rain = 0
KCR1 161531Z 02009KT 24/18 A2994 RMK A01 T02360177  RH  069%=      5-min Rain = 0
KCR1 161532Z 02006KT 24/18 A2994 RMK A01 T02360179  RH  070%=      5-min Rain = 0
KCR1 161533Z 02007KT 24/18 A2994 RMK A01 T02370180  RH  070%=      5-min Rain = 0
KCR1 161534Z 03009KT 24/18 A2994 RMK A01 T02380179  RH  069%=      5-min Rain = 0
KCR1 161535Z 02010KT 24/18 A2994 RMK A01 T02380177  RH  069%=      5-min Rain = 0
KCR1 161536Z 01010KT 24/18 A2994 RMK A01 T02380176  RH  068%=      5-min Rain = 0
KCR1 161537Z 02009KT 24/18 A2994 RMK A01 T02390177  RH  068%=      5-min Rain = 0
KCR1 161538Z 03008KT 24/18 A2994 RMK A01 T02400175  RH  067%=      5-min Rain = 0
KCR1 161539Z 02008KT 24/17 A2994 RMK A01 T02400174  RH  067%=      5-min Rain = 0
KCR1 161540Z 03010KT 24/18 A2994 RMK A01 T02400179  RH  069%=      5-min Rain = 0
KCR1 161541Z 01009KT 24/18 A2994 RMK A01 T02420177  RH  067%=      5-min Rain = 0
KCR1 161542Z 02010KT 24/18 A2994 RMK A01 T02430177  RH  066%=      5-min Rain = 0
KCR1 161543Z 02008KT 24/18 A2994 RMK A01 T02430177  RH  066%=      5-min Rain = 0
KCR1 161544Z 02009KT 24/18 A2994 RMK A01 T02430178  RH  067%=      5-min Rain = 0
KCR1 161545Z 02007KT 24/18 A2994 RMK A01 T02430179  RH  067%=      5-min Rain = 0
KCR1 161546Z 03008KT 24/18 A2994 RMK A01 T02440184  RH  069%=      5-min Rain = 0
KCR1 161547Z 03008KT 25/18 A2994 RMK A01 T02460182  RH  067%=      5-min Rain = 0
KCR1 161548Z 04011KT 25/19 A2994 RMK A01 T02480186  RH  068%=      5-min Rain = 0
KCR1 161549Z 04012KT 25/18 A2994 RMK A01 T02480180  RH  066%=      5-min Rain = 0
KCR1 161550Z 04010KT 25/18 A2994 RMK A01 T02450180  RH  067%=      5-min Rain = 0
KCR1 161551Z 04010KT 25/18 A2994 RMK A01 T02450180  RH  067%=      5-min Rain = 0
KCR1 161552Z 01009KT 25/19 A2994 RMK A01 T02470187  RH  069%=      5-min Rain = 0
KCR1 161553Z 02010G16KT 25/18 A2994 RMK A01 T02480184  RH  068%=      5-min Rain = 0
KCR1 161554Z 02012KT 25/18 A2994 RMK A01 T02460177  RH  065%=      5-min Rain = 0
KCR1 161555Z 36011KT 24/18 A2994 RMK A01 T02420178  RH  067%=      5-min Rain = 0
KCR1 161556Z 01012KT 24/18 A2994 RMK A01 T02400175  RH  067%=      5-min Rain = 0
KCR1 161557Z 02012KT 24/17 A2994 RMK A01 T02390172  RH  066%=      5-min Rain = 0
KCR1 161558Z 02012KT 24/17 A2994 RMK A01 T02380173  RH  067%=      5-min Rain = 0
KCR1 161559Z 02011KT 24/17 A2994 RMK A01 T02380174  RH  067%=      5-min Rain = 0
KCR1 161600Z 02011KT 24/18 A2994 RMK A01 T02380175  RH  068%=      5-min Rain = 0
KCR1 161601Z 02010KT 24/18 A2994 RMK A01 T02380175  RH  068%=      5-min Rain = 0
KCR1 161602Z 02012KT 24/18 A2994 RMK A01 T02380177  RH  069%=      5-min Rain = 0
KCR1 161603Z 02011KT 24/17 A2994 RMK A01 T02380173  RH  067%=      5-min Rain = 0
KCR1 161604Z 02010KT 24/18 A2994 RMK A01 T02380176  RH  068%=      5-min Rain = 0
KCR1 161605Z 01011KT 24/18 A2994 RMK A01 T02390177  RH  068%=      5-min Rain = 0
KCR1 161606Z 01012KT 24/17 A2994 RMK A01 T02390174  RH  067%=      5-min Rain = 0
KCR1 161607Z 03010KT 24/18 A2994 RMK A01 T02390177  RH  069%=      5-min Rain = 0
KCR1 161608Z 04011KT 24/18 A2994 RMK A01 T02390178  RH  069%=      5-min Rain = 0
KCR1 161609Z 03012KT 24/18 A2994 RMK A01 T02400178  RH  068%=      5-min Rain = 0
KCR1 161610Z 03011KT 24/18 A2994 RMK A01 T02400176  RH  067%=      5-min Rain = 0
KCR1 161611Z 04011KT 24/18 A2994 RMK A01 T02390175  RH  067%=      5-min Rain = 0
KCR1 161612Z 02012KT 24/18 A2994 RMK A01 T02390181  RH  070%=      5-min Rain = 0
KCR1 161613Z 02010KT 24/18 A2994 RMK A01 T02410180  RH  068%=      5-min Rain = 0
KCR1 161614Z 02010KT 24/18 A2994 RMK A01 T02400177  RH  068%=      5-min Rain = 0
KCR1 161615Z 02009KT 24/18 A2994 RMK A01 T02390179  RH  069%=      5-min Rain = 0
KCR1 161616Z 04011KT 24/18 A2994 RMK A01 T02390179  RH  069%=      5-min Rain = 0
KCR1 161617Z 04011KT 24/18 A2994 RMK A01 T02390181  RH  070%=      5-min Rain = 0
KCR1 161618Z 04011KT 24/18 A2994 RMK A01 T02390180  RH  069%=      5-min Rain = 0
KCR1 161619Z 04009KT 24/18 A2994 RMK A01 T02390182  RH  070%=      5-min Rain = 0
KCR1 161620Z 04009KT 24/18 A2994 RMK A01 T02400182  RH  070%=      5-min Rain = 0
KCR1 161621Z 04012KT 24/18 A2994 RMK A01 T02400177  RH  068%=      5-min Rain = 0
KCR1 161622Z 04010KT 24/18 A2994 RMK A01 T02380175  RH  068%=      5-min Rain = 0
KCR1 161623Z 02010KT 24/18 A2994 RMK A01 T02370178  RH  069%=      5-min Rain = 0
KCR1 161624Z 03011KT 24/18 A2994 RMK A01 T02370175  RH  068%=      5-min Rain = 0
KCR1 161625Z 03010KT 24/18 A2994 RMK A01 T02370175  RH  068%=      5-min Rain = 0
KCR1 161626Z 04009KT 24/18 A2994 RMK A01 T02370177  RH  069%=      5-min Rain = 0
KCR1 161627Z 02008KT 24/18 A2994 RMK A01 T02380180  RH  070%=      5-min Rain = 0
KCR1 161628Z 02009KT 24/18 A2994 RMK A01 T02380176  RH  068%=      5-min Rain = 0
KCR1 161629Z 02009KT 24/18 A2994 RMK A01 T02380179  RH  070%=      5-min Rain = 0
KCR1 161630Z 02010KT 24/18 A2994 RMK A01 T02380180  RH  070%=      5-min Rain = 0
KCR1 161631Z 04010KT 24/18 A2994 RMK A01 T02370180  RH  070%=      5-min Rain = 0
KCR1 161632Z 04009KT 24/18 A2994 RMK A01 T02370179  RH  070%=      5-min Rain = 0
KCR1 161633Z 04007KT 24/18 A2994 RMK A01 T02370181  RH  071%=      5-min Rain = 0
KCR1 161634Z 05009KT 24/18 A2994 RMK A01 T02380183  RH  071%=      5-min Rain = 0
KCR1 161635Z 04008KT 24/18 A2994 RMK A01 T02390178  RH  069%=      5-min Rain = 0
KCR1 161636Z 03010KT 24/18 A2994 RMK A01 T02380180  RH  070%=      5-min Rain = 0
KCR1 161637Z 02011KT 24/18 A2994 RMK A01 T02380176  RH  068%=      5-min Rain = 0
KCR1 161638Z 03010KT 24/18 A2994 RMK A01 T02370178  RH  070%=      5-min Rain = 0
KCR1 161639Z 03010KT 24/18 A2994 RMK A01 T02360178  RH  070%=      5-min Rain = 0
KCR1 161640Z 03010KT 24/18 A2994 RMK A01 T02360179  RH  070%=      5-min Rain = 0
KCR1 161641Z 02010KT 24/18 A2994 RMK A01 T02360178  RH  070%=      5-min Rain = 0
KCR1 161642Z 02010KT 24/18 A2994 RMK A01 T02360178  RH  070%=      5-min Rain = 0
KCR1 161643Z 02010KT 24/18 A2994 RMK A01 T02350180  RH  071%=      5-min Rain = 0
KCR1 161644Z 01010KT 24/18 A2994 RMK A01 T02350179  RH  071%=      5-min Rain = 0
KCR1 161645Z 02008KT 24/18 A2994 RMK A01 T02370182  RH  071%=      5-min Rain = 0
KCR1 161646Z 02010KT 24/18 A2994 RMK A01 T02380182  RH  071%=      5-min Rain = 0
KCR1 161647Z 03010KT 24/18 A2994 RMK A01 T02390181  RH  070%=      5-min Rain = 0
KCR1 161648Z 03010KT 24/18 A2994 RMK A01 T02400179  RH  069%=      5-min Rain = 0
KCR1 161649Z 02009KT 24/18 A2994 RMK A01 T02400179  RH  069%=      5-min Rain = 0
KCR1 161650Z 02010KT 24/18 A2994 RMK A01 T02410180  RH  069%=      5-min Rain = 0
KCR1 161651Z 02008KT 24/18 A2994 RMK A01 T02410179  RH  068%=      5-min Rain = 0
KCR1 161652Z 03009KT 24/18 A2994 RMK A01 T02410177  RH  067%=      5-min Rain = 0
KCR1 161653Z 03009KT 24/18 A2994 RMK A01 T02410179  RH  068%=      5-min Rain = 0
KCR1 161654Z 02010KT 24/18 A2994 RMK A01 T02400178  RH  068%=      5-min Rain = 0
KCR1 161655Z 02008KT 24/18 A2994 RMK A01 T02380177  RH  068%=      5-min Rain = 0
KCR1 161656Z 01008KT 24/18 A2994 RMK A01 T02370179  RH  070%=      5-min Rain = 0
KCR1 161657Z 01009KT 24/18 A2994 RMK A01 T02380179  RH  070%=      5-min Rain = 0
KCR1 161658Z 01008KT 24/18 A2994 RMK A01 T02390177  RH  068%=      5-min Rain = 0
KCR1 161659Z 02010KT 24/18 A2994 RMK A01 T02390175  RH  067%=      5-min Rain = 0
KCR1 161700Z 02008KT 24/17 A2994 RMK A01 T02390171  RH  066%=      5-min Rain = 0
KCR1 161701Z 04008KT 24/18 A2994 RMK A01 T02380176  RH  068%=      5-min Rain = 0
KCR1 161702Z 05010KT 24/17 A2994 RMK A01 T02380172  RH  067%=      5-min Rain = 0
KCR1 161703Z 04010KT 24/17 A2994 RMK A01 T02380171  RH  066%=      5-min Rain = 0
KCR1 161704Z 04010KT 24/17 A2994 RMK A01 T02380172  RH  066%=      5-min Rain = 0
KCR1 161705Z 04010KT 24/17 A2994 RMK A01 T02370174  RH  068%=      5-min Rain = 0
KCR1 161706Z 03010KT 24/17 A2994 RMK A01 T02380172  RH  067%=      5-min Rain = 0
KCR1 161707Z 02011KT 24/17 A2994 RMK A01 T02380173  RH  067%=      5-min Rain = 0
KCR1 161708Z 03012KT 24/17 A2994 RMK A01 T02380172  RH  066%=      5-min Rain = 0
KCR1 161709Z 03011KT 24/17 A2994 RMK A01 T02390171  RH  066%=      5-min Rain = 0
KCR1 161710Z 03011KT 24/17 A2994 RMK A01 T02390172  RH  066%=      5-min Rain = 0
KCR1 161711Z 04010KT 24/17 A2994 RMK A01 T02400172  RH  066%=      5-min Rain = 0
KCR1 161712Z 03010KT 24/18 A2994 RMK A01 T02410176  RH  067%=      5-min Rain = 0
KCR1 161713Z 03011KT 24/18 A2994 RMK A01 T02420176  RH  066%=      5-min Rain = 0
KCR1 161714Z 04011KT 24/17 A2994 RMK A01 T02420173  RH  065%=      5-min Rain = 0
KCR1 161715Z 03010KT 24/17 A2994 RMK A01 T02420172  RH  065%=      5-min Rain = 0
KCR1 161716Z 02011KT 24/18 A2994 RMK A01 T02430176  RH  066%=      5-min Rain = 0
KCR1 161717Z 02011KT 24/18 A2994 RMK A01 T02430176  RH  066%=      5-min Rain = 0
KCR1 161718Z 02011KT 24/18 A2994 RMK A01 T02430177  RH  066%=      5-min Rain = 0
KCR1 161719Z 02011KT 24/18 A2994 RMK A01 T02430176  RH  066%=      5-min Rain = 0
KCR1 161720Z 03011KT 24/17 A2994 RMK A01 T02430174  RH  065%=      5-min Rain = 0
KCR1 161721Z 03010KT 24/18 A2994 RMK A01 T02420175  RH  066%=      5-min Rain = 0
KCR1 161722Z 04011KT 24/18 A2994 RMK A01 T02420176  RH  067%=      5-min Rain = 0
KCR1 161723Z 05011KT 24/18 A2994 RMK A01 T02420177  RH  067%=      5-min Rain = 0
KCR1 161724Z 05009KT 24/18 A2994 RMK A01 T02430177  RH  067%=      5-min Rain = 0
KCR1 161725Z 04011KT 24/18 A2993 RMK A01 T02430177  RH  067%=      5-min Rain = 0
KCR1 161726Z 03008KT 24/18 A2993 RMK A01 T02430181  RH  069%=      5-min Rain = 0
KCR1 161727Z 03008KT 24/18 A2993 RMK A01 T02430183  RH  069%=      5-min Rain = 0
KCR1 161728Z 02008KT 24/18 A2993 RMK A01 T02440184  RH  069%=      5-min Rain = 0
KCR1 161729Z 02010KT 25/18 A2993 RMK A01 T02450181  RH  068%=      5-min Rain = 0
KCR1 161730Z 01010KT 24/18 A2993 RMK A01 T02440180  RH  068%=      5-min Rain = 0
KCR1 161731Z 02010KT 24/18 A2993 RMK A01 T02420180  RH  068%=      5-min Rain = 0
KCR1 161732Z 02009KT 24/18 A2993 RMK A01 T02420181  RH  069%=      5-min Rain = 0
KCR1 161733Z 04008KT 24/18 A2993 RMK A01 T02420183  RH  070%=      5-min Rain = 0
KCR1 161734Z 04010KT 24/18 A2993 RMK A01 T02420177  RH  067%=      5-min Rain = 0
KCR1 161735Z 04009KT 24/18 A2993 RMK A01 T02420180  RH  068%=      5-min Rain = 0
KCR1 161736Z 04008KT 24/18 A2993 RMK A01 T02420179  RH  068%=      5-min Rain = 0
KCR1 161737Z 02009KT 24/18 A2993 RMK A01 T02410180  RH  069%=      5-min Rain = 0
KCR1 161738Z 03010KT 24/18 A2993 RMK A01 T02410180  RH  069%=      5-min Rain = 0
KCR1 161739Z 03010KT 24/18 A2993 RMK A01 T02400177  RH  068%=      5-min Rain = 0
KCR1 161740Z 03010KT 24/18 A2993 RMK A01 T02390177  RH  068%=      5-min Rain = 0
KCR1 161741Z 02010KT 24/18 A2993 RMK A01 T02390175  RH  067%=      5-min Rain = 0
KCR1 161742Z 03013KT 24/18 A2993 RMK A01 T02390175  RH  067%=      5-min Rain = 0
KCR1 161743Z 03010KT 24/17 A2993 RMK A01 T02390174  RH  067%=      5-min Rain = 0
KCR1 161744Z 03009KT 24/18 A2993 RMK A01 T02390177  RH  069%=      5-min Rain = 0
KCR1 161745Z 02010KT 24/18 A2993 RMK A01 T02390175  RH  067%=      5-min Rain = 0
KCR1 161746Z 03009KT 24/18 A2993 RMK A01 T02400176  RH  068%=      5-min Rain = 0
KCR1 161747Z 03009KT 24/18 A2993 RMK A01 T02390177  RH  068%=      5-min Rain = 0
KCR1 161748Z 02009KT 24/18 A2993 RMK A01 T02380176  RH  068%=      5-min Rain = 0
KCR1 161749Z 03010KT 24/18 A2993 RMK A01 T02380178  RH  069%=      5-min Rain = 0
KCR1 161750Z 04010KT 24/18 A2993 RMK A01 T02370177  RH  069%=      5-min Rain = 0
KCR1 161751Z 04009KT 24/18 A2993 RMK A01 T02370179  RH  070%=      5-min Rain = 0
KCR1 161752Z 02009KT 24/18 A2993 RMK A01 T02380177  RH  069%=      5-min Rain = 0
KCR1 161753Z 02010KT 24/18 A2993 RMK A01 T02380179  RH  070%=      5-min Rain = 0
KCR1 161754Z 01010KT 24/18 A2993 RMK A01 T02370181  RH  071%=      5-min Rain = 0
KCR1 161755Z 01011KT 24/18 A2993 RMK A01 T02370177  RH  069%=      5-min Rain = 0
KCR1 161756Z 01009KT 24/18 A2993 RMK A01 T02360179  RH  070%=      5-min Rain = 0
KCR1 161757Z 01010KT 24/18 A2993 RMK A01 T02350179  RH  071%=      5-min Rain = 0
KCR1 161758Z 01010KT 23/18 A2993 RMK A01 T02340178  RH  070%=      5-min Rain = 0
KCR1 161759Z 01011KT 23/18 A2992 RMK A01 T02340179  RH  071%=      5-min Rain = 0
KCR1 161800Z 01010KT 23/18 A2992 RMK A01 T02340177  RH  070%=      5-min Rain = 0
KCR1 161801Z 01011KT 23/18 A2992 RMK A01 T02330178  RH  071%=      5-min Rain = 0
KCR1 161802Z 01011KT 23/18 A2992 RMK A01 T02340176  RH  070%=      5-min Rain = 0
KCR1 161803Z 01010KT 23/18 A2992 RMK A01 T02340177  RH  071%=      5-min Rain = 0
KCR1 161804Z 01011KT 23/18 A2992 RMK A01 T02340176  RH  070%=      5-min Rain = 0
KCR1 161805Z 02011KT 23/18 A2992 RMK A01 T02340176  RH  070%=      5-min Rain = 0
KCR1 161806Z 02010KT 23/18 A2992 RMK A01 T02340178  RH  071%=      5-min Rain = 0
KCR1 161807Z 01010KT 24/18 A2992 RMK A01 T02350180  RH  071%=      5-min Rain = 0
KCR1 161808Z 01010KT 24/18 A2992 RMK A01 T02360180  RH  071%=      5-min Rain = 0
KCR1 161809Z 01011KT 24/18 A2992 RMK A01 T02360178  RH  070%=      5-min Rain = 0
KCR1 161810Z 01010KT 24/18 A2992 RMK A01 T02360178  RH  070%=      5-min Rain = 0
KCR1 161811Z 02009KT 24/18 A2992 RMK A01 T02350180  RH  071%=      5-min Rain = 0
KCR1 161812Z 01009KT 24/18 A2992 RMK A01 T02360178  RH  070%=      5-min Rain = 0
KCR1 161813Z 02006KT 24/18 A2992 RMK A01 T02360182  RH  072%=      5-min Rain = 0
KCR1 161814Z 02006KT 24/18 A2992 RMK A01 T02380184  RH  072%=      5-min Rain = 0
KCR1 161815Z 02006KT 24/18 A2992 RMK A01 T02390181  RH  070%=      5-min Rain = 0
KCR1 161816Z 04008KT 24/19 A2992 RMK A01 T02390186  RH  072%=      5-min Rain = 0
KCR1 161817Z 04008KT 24/18 A2992 RMK A01 T02410180  RH  069%=      5-min Rain = 0
KCR1 161818Z 05009KT 24/18 A2991 RMK A01 T02420178  RH  068%=      5-min Rain = 0
KCR1 161819Z 03008KT 24/18 A2991 RMK A01 T02420180  RH  068%=      5-min Rain = 0
KCR1 161820Z 03009KT 24/18 A2991 RMK A01 T02410181  RH  069%=      5-min Rain = 0
KCR1 161821Z 03010KT 24/18 A2991 RMK A01 T02410177  RH  067%=      5-min Rain = 0
KCR1 161822Z 03010KT 24/17 A2991 RMK A01 T02410174  RH  066%=      5-min Rain = 0
KCR1 161823Z 03009KT 24/18 A2991 RMK A01 T02410178  RH  068%=      5-min Rain = 0
KCR1 161824Z 04009KT 24/17 A2991 RMK A01 T02430174  RH  066%=      5-min Rain = 0
KCR1 161825Z 03010KT 24/18 A2991 RMK A01 T02430178  RH  067%=      5-min Rain = 0
KCR1 161826Z 03010KT 24/18 A2991 RMK A01 T02430177  RH  067%=      5-min Rain = 0
KCR1 161827Z 02009KT 24/18 A2991 RMK A01 T02430176  RH  066%=      5-min Rain = 0
KCR1 161828Z 02010KT 24/18 A2991 RMK A01 T02430175  RH  066%=      5-min Rain = 0
KCR1 161829Z 03009KT 24/18 A2991 RMK A01 T02420176  RH  067%=      5-min Rain = 0
KCR1 161830Z 04009KT 24/18 A2991 RMK A01 T02420179  RH  068%=      5-min Rain = 0
KCR1 161831Z 02008KT 24/18 A2991 RMK A01 T02430179  RH  068%=      5-min Rain = 0
KCR1 161832Z 02008KT 24/18 A2991 RMK A01 T02440183  RH  069%=      5-min Rain = 0
KCR1 161833Z 02009KT 25/18 A2991 RMK A01 T02450180  RH  067%=      5-min Rain = 0
KCR1 161834Z 02009KT 25/18 A2991 RMK A01 T02450179  RH  067%=      5-min Rain = 0
KCR1 161835Z 02009KT 25/18 A2991 RMK A01 T02450180  RH  067%=      5-min Rain = 0
KCR1 161836Z 02010KT 25/18 A2991 RMK A01 T02450178  RH  066%=      5-min Rain = 0
KCR1 161837Z 02010KT 25/17 A2991 RMK A01 T02450174  RH  064%=      5-min Rain = 0
KCR1 161838Z 01009KT 25/18 A2991 RMK A01 T02450177  RH  066%=      5-min Rain = 0
KCR1 161839Z 01008KT 25/18 A299 RMK A01 T02460177  RH  066%=      5-min Rain = 0
KCR1 161840Z 02008KT 25/18 A299 RMK A01 T02460178  RH  066%=      5-min Rain = 0
KCR1 161841Z 03007KT 25/18 A299 RMK A01 T02460177  RH  066%=      5-min Rain = 0
KCR1 161842Z 03007KT 25/18 A299 RMK A01 T02450175  RH  065%=      5-min Rain = 0
KCR1 161843Z 03008KT 24/18 A299 RMK A01 T02440176  RH  066%=      5-min Rain = 0
KCR1 161844Z 03006KT 24/18 A299 RMK A01 T02430177  RH  066%=      5-min Rain = 0
KCR1 161845Z 03007KT 24/18 A299 RMK A01 T02430177  RH  066%=      5-min Rain = 0
KCR1 161846Z 04007KT 24/18 A2989 RMK A01 T02440177  RH  066%=      5-min Rain = 0
KCR1 161847Z 03006KT 25/18 A2989 RMK A01 T02450176  RH  065%=      5-min Rain = 0
KCR1 161848Z 02007KT 25/17 A299 RMK A01 T02450174  RH  065%=      5-min Rain = 0
KCR1 161849Z 01009KT 25/17 A299 RMK A01 T02450173  RH  064%=      5-min Rain = 0
KCR1 161850Z 01009KT 25/18 A299 RMK A01 T02470176  RH  065%=      5-min Rain = 0
KCR1 161851Z 00009KT 25/18 A299 RMK A01 T02490180  RH  065%=      5-min Rain = 0
KCR1 161852Z 01007KT 25/18 A299 RMK A01 T02500175  RH  063%=      5-min Rain = 0
KCR1 161853Z 02009KT 25/18 A299 RMK A01 T02500183  RH  066%=      5-min Rain = 0
KCR1 161854Z 03008KT 25/18 A2989 RMK A01 T02510178  RH  064%=      5-min Rain = 0
KCR1 161855Z 02007KT 25/18 A2989 RMK A01 T02510180  RH  065%=      5-min Rain = 0
KCR1 161856Z 35010KT 25/18 A2989 RMK A01 T02520181  RH  065%=      5-min Rain = 0
KCR1 161857Z 01010KT 25/18 A2989 RMK A01 T02520179  RH  064%=      5-min Rain = 0
KCR1 161858Z 00010KT 25/18 A2989 RMK A01 T02510178  RH  064%=      5-min Rain = 0
KCR1 161859Z 00008KT 25/18 A2989 RMK A01 T02500177  RH  064%=      5-min Rain = 0
KCR1 161900Z 00006KT 25/18 A2989 RMK A01 T02480178  RH  065%=      5-min Rain = 0
KCR1 161901Z 03007KT 25/19 A2989 RMK A01 T02490185  RH  067%=      5-min Rain = 0
KCR1 161902Z 02007KT 25/18 A2989 RMK A01 T02530181  RH  064%=      5-min Rain = 0
KCR1 161903Z 01010KT 26/18 A2989 RMK A01 T02550177  RH  062%=      5-min Rain = 0
KCR1 161904Z 00008KT 25/18 A2989 RMK A01 T02540180  RH  063%=      5-min Rain = 0
KCR1 161905Z 36006KT 25/18 A2989 RMK A01 T02540176  RH  062%=      5-min Rain = 0
KCR1 161906Z 04006KT 25/18 A2989 RMK A01 T02520176  RH  063%=      5-min Rain = 0
KCR1 161907Z 03004KT 25/18 A2989 RMK A01 T02510175  RH  063%=      5-min Rain = 0
KCR1 161908Z 05004KT 25/18 A2989 RMK A01 T02510183  RH  066%=      5-min Rain = 0
KCR1 161909Z 03005KT 25/18 A2989 RMK A01 T02530177  RH  062%=      5-min Rain = 0
KCR1 161910Z 01003KT 25/18 A2989 RMK A01 T02520178  RH  063%=      5-min Rain = 0
KCR1 161911Z 01005KT 25/18 A2989 RMK A01 T02520179  RH  064%=      5-min Rain = 0
KCR1 161912Z 03005KT 25/18 A2989 RMK A01 T02520181  RH  065%=      5-min Rain = 0
KCR1 161913Z 03005KT 25/18 A2988 RMK A01 T02540180  RH  064%=      5-min Rain = 0
KCR1 161914Z 05007KT 26/18 A2988 RMK A01 T02550175  RH  061%=      5-min Rain = 0
KCR1 161915Z 04005KT 25/18 A2988 RMK A01 T02540175  RH  062%=      5-min Rain = 0
KCR1 161916Z 03005KT 25/18 A2989 RMK A01 T02540177  RH  062%=      5-min Rain = 0
KCR1 161917Z 04006KT 26/17 A2989 RMK A01 T02550174  RH  061%=      5-min Rain = 0
KCR1 161918Z 05008KT 26/17 A2989 RMK A01 T02550171  RH  060%=      5-min Rain = 0
KCR1 161919Z 07007KT 26/17 A2989 RMK A01 T02550170  RH  060%=      5-min Rain = 0
KCR1 161920Z 07007KT 26/17 A2989 RMK A01 T02560173  RH  060%=      5-min Rain = 0
KCR1 161921Z 08007KT 26/17 A2989 RMK A01 T02570174  RH  060%=      5-min Rain = 0
KCR1 161922Z 07007KT 26/18 A2988 RMK A01 T02590178  RH  061%=      5-min Rain = 0
KCR1 161923Z 05006KT 26/18 A2988 RMK A01 T02600177  RH  060%=      5-min Rain = 0
KCR1 161924Z 03006KT 26/18 A2988 RMK A01 T02620180  RH  061%=      5-min Rain = 0
KCR1 161925Z 01005KT 26/18 A2988 RMK A01 T02640177  RH  059%=      5-min Rain = 0
KCR1 161926Z 03005KT 26/18 A2988 RMK A01 T02630178  RH  060%=      5-min Rain = 0
KCR1 161927Z 07006KT 26/18 A2988 RMK A01 T02620176  RH  059%=      5-min Rain = 0
KCR1 161928Z 06007KT 26/18 A2988 RMK A01 T02640175  RH  058%=      5-min Rain = 0
KCR1 161929Z 05007KT 27/18 A2988 RMK A01 T02660178  RH  058%=      5-min Rain = 0
KCR1 161930Z 06006KT 27/17 A2988 RMK A01 T02680169  RH  055%=      5-min Rain = 0
KCR1 161931Z 05006KT 27/17 A2988 RMK A01 T02650169  RH  055%=      5-min Rain = 0
KCR1 161932Z 04005KT 27/18 A2988 RMK A01 T02650178  RH  059%=      5-min Rain = 0
KCR1 161933Z 05006KT 27/18 A2988 RMK A01 T02680175  RH  057%=      5-min Rain = 0
KCR1 161934Z 05005KT 27/17 A2988 RMK A01 T02670173  RH  056%=      5-min Rain = 0
KCR1 161935Z 03004KT 27/17 A2988 RMK A01 T02660172  RH  056%=      5-min Rain = 0
KCR1 161936Z 03005KT 27/18 A2988 RMK A01 T02660179  RH  059%=      5-min Rain = 0
KCR1 161937Z 04007KT 27/17 A2988 RMK A01 T02660173  RH  057%=      5-min Rain = 0
KCR1 161938Z 04008KT 27/17 A2988 RMK A01 T02650169  RH  055%=      5-min Rain = 0
KCR1 161939Z 02007KT 26/16 A2988 RMK A01 T02640162  RH  054%=      5-min Rain = 0
KCR1 161940Z 03006KT 26/16 A2988 RMK A01 T02630160  RH  053%=      5-min Rain = 0
KCR1 161941Z 04006KT 26/17 A2988 RMK A01 T02630171  RH  057%=      5-min Rain = 0
KCR1 161942Z 02005KT 26/17 A2988 RMK A01 T02630170  RH  057%=      5-min Rain = 0
KCR1 161943Z 02006KT 26/18 A2988 RMK A01 T02620175  RH  059%=      5-min Rain = 0
KCR1 161944Z 02007KT 26/18 A2988 RMK A01 T02630179  RH  060%=      5-min Rain = 0
KCR1 161945Z 02007KT 26/18 A2988 RMK A01 T02640182  RH  060%=      5-min Rain = 0
KCR1 161946Z 00008KT 27/18 A2988 RMK A01 T02670175  RH  057%=      5-min Rain = 0
KCR1 161947Z 02008KT 27/18 A2988 RMK A01 T02670175  RH  057%=      5-min Rain = 0
KCR1 161948Z 02007KT 27/18 A2988 RMK A01 T02670177  RH  057%=      5-min Rain = 0
KCR1 161949Z 04007KT 27/18 A2988 RMK A01 T02710181  RH  058%=      5-min Rain = 0
KCR1 161950Z 03008KT 27/18 A2988 RMK A01 T02740176  RH  055%=      5-min Rain = 0
KCR1 161951Z 01007KT 28/18 A2988 RMK A01 T02750176  RH  055%=      5-min Rain = 0
KCR1 161952Z 36007KT 27/18 A2988 RMK A01 T02730176  RH  055%=      5-min Rain = 0
KCR1 161953Z 02006KT 27/18 A2988 RMK A01 T02710178  RH  057%=      5-min Rain = 0
KCR1 161954Z 00008KT 27/18 A2988 RMK A01 T02710180  RH  058%=      5-min Rain = 0
KCR1 161955Z 01011KT 27/18 A2988 RMK A01 T02710178  RH  057%=      5-min Rain = 0
KCR1 161956Z 01010KT 27/18 A2989 RMK A01 T02680180  RH  058%=      5-min Rain = 0
KCR1 161957Z 01008KT 27/18 A2989 RMK A01 T02670178  RH  058%=      5-min Rain = 0
KCR1 161958Z 02006KT 27/18 A2988 RMK A01 T02650179  RH  059%=      5-min Rain = 0
KCR1 161959Z 03006KT 26/18 A2988 RMK A01 T02640177  RH  059%=      5-min Rain = 0
KCR1 162000Z 02008KT 26/18 A2988 RMK A01 T02640179  RH  060%=      5-min Rain = 0
KCR1 162001Z 02007KT 26/18 A2988 RMK A01 T02640179  RH  059%=      5-min Rain = 0
KCR1 162002Z 02009KT 27/18 A2988 RMK A01 T02650181  RH  060%=      5-min Rain = 0
KCR1 162003Z 01010KT 27/18 A2988 RMK A01 T02650179  RH  059%=      5-min Rain = 0
KCR1 162004Z 00010KT 26/18 A2988 RMK A01 T02640177  RH  059%=      5-min Rain = 0
KCR1 162005Z 00010KT 26/18 A2988 RMK A01 T02630178  RH  059%=      5-min Rain = 0
KCR1 162006Z 00008KT 26/18 A2988 RMK A01 T02630176  RH  059%=      5-min Rain = 0
KCR1 162007Z 35007KT 26/18 A2988 RMK A01 T02620175  RH  059%=      5-min Rain = 0
KCR1 162008Z 00008KT 26/18 A2988 RMK A01 T02620176  RH  059%=      5-min Rain = 0
KCR1 162009Z 36007KT 26/18 A2988 RMK A01 T02630182  RH  061%=      5-min Rain = 0
KCR1 162010Z 00008KT 27/18 A2988 RMK A01 T02650179  RH  059%=      5-min Rain = 0
KCR1 162011Z 00006KT 27/18 A2988 RMK A01 T02660179  RH  059%=      5-min Rain = 0
KCR1 162012Z 36004KT 27/18 A2988 RMK A01 T02650179  RH  059%=      5-min Rain = 0
KCR1 162013Z 01004KT 26/18 A2988 RMK A01 T02640179  RH  060%=      5-min Rain = 0
KCR1 162014Z 04003KT 26/18 A2988 RMK A01 T02630177  RH  059%=      5-min Rain = 0
KCR1 162015Z 05004KT 26/17 A2988 RMK A01 T02630174  RH  058%=      5-min Rain = 0
KCR1 162016Z 02008KT 26/18 A2988 RMK A01 T02630180  RH  060%=      5-min Rain = 0
KCR1 162017Z 35006KT 26/18 A2988 RMK A01 T02620178  RH  060%=      5-min Rain = 0
KCR1 162018Z 00004KT 26/18 A2988 RMK A01 T02620181  RH  061%=      5-min Rain = 0
KCR1 162019Z 02005KT 26/18 A2988 RMK A01 T02610182  RH  061%=      5-min Rain = 0
KCR1 162020Z 04006KT 26/18 A2988 RMK A01 T02620180  RH  061%=      5-min Rain = 0
KCR1 162021Z 03005KT 26/18 A2989 RMK A01 T02620179  RH  060%=      5-min Rain = 0
KCR1 162022Z 03004KT 26/18 A2989 RMK A01 T02610177  RH  060%=      5-min Rain = 0
KCR1 162023Z 02006KT 26/18 A2989 RMK A01 T02610184  RH  063%=      5-min Rain = 0
KCR1 162024Z 03007KT 26/18 A2989 RMK A01 T02610182  RH  061%=      5-min Rain = 0
KCR1 162025Z 01007KT 26/19 A2989 RMK A01 T02610185  RH  063%=      5-min Rain = 0
KCR1 162026Z 01005KT 26/19 A2989 RMK A01 T02620186  RH  063%=      5-min Rain = 0
KCR1 162027Z 00007KT 26/19 A2989 RMK A01 T02630186  RH  063%=      5-min Rain = 0
KCR1 162028Z 00006KT 26/18 A2989 RMK A01 T02630181  RH  061%=      5-min Rain = 0
KCR1 162029Z 01006KT 26/18 A2989 RMK A01 T02620182  RH  061%=      5-min Rain = 0
KCR1 162030Z 00005KT 26/19 A2989 RMK A01 T02620185  RH  063%=      5-min Rain = 0
KCR1 162031Z 35005KT 26/19 A2989 RMK A01 T02640185  RH  062%=      5-min Rain = 0
KCR1 162032Z 01007KT 26/18 A2989 RMK A01 T02640182  RH  061%=      5-min Rain = 0
KCR1 162033Z 01008KT 26/18 A2989 RMK A01 T02640181  RH  060%=      5-min Rain = 0
KCR1 162034Z 36006KT 26/18 A2989 RMK A01 T02640181  RH  060%=      5-min Rain = 0
KCR1 162035Z 34006KT 27/19 A2989 RMK A01 T02650185  RH  062%=      5-min Rain = 0
KCR1 162036Z 33005KT 27/19 A2989 RMK A01 T02670188  RH  062%=      5-min Rain = 0
KCR1 162037Z 00008KT 27/19 A2989 RMK A01 T02690190  RH  062%=      5-min Rain = 0
KCR1 162038Z 01011KT 27/19 A2989 RMK A01 T02690193  RH  063%=      5-min Rain = 0
KCR1 162039Z 00012KT 27/19 A2989 RMK A01 T02670193  RH  064%=      5-min Rain = 0
KCR1 162040Z 01010KT 26/19 A2989 RMK A01 T02640188  RH  063%=      5-min Rain = 0
KCR1 162041Z 36011KT 26/19 A2989 RMK A01 T02610189  RH  065%=      5-min Rain = 0
KCR1 162042Z 35008KT 26/19 A2989 RMK A01 T02600190  RH  065%=      5-min Rain = 0
KCR1 162043Z 00010KT 26/19 A2989 RMK A01 T02600191  RH  065%=      5-min Rain = 0
KCR1 162044Z 01008KT 26/19 A2989 RMK A01 T02610193  RH  066%=      5-min Rain = 0
KCR1 162045Z 01007KT 26/20 A2989 RMK A01 T02630197  RH  067%=      5-min Rain = 0
KCR1 162046Z 01006KT 27/20 A2988 RMK A01 T02650196  RH  066%=      5-min Rain = 0
KCR1 162047Z 01009KT 27/19 A2988 RMK A01 T02660194  RH  065%=      5-min Rain = 0
KCR1 162048Z 01010KT 27/20 A2989 RMK A01 T02650195  RH  065%=      5-min Rain = 0
KCR1 162049Z 36009KT 26/19 A2989 RMK A01 T02640191  RH  064%=      5-min Rain = 0
KCR1 162050Z 00010KT 26/19 A2989 RMK A01 T02630193  RH  065%=      5-min Rain = 0
KCR1 162051Z 36008KT 26/19 A2989 RMK A01 T02630191  RH  065%=      5-min Rain = 0
KCR1 162052Z 35008KT 26/19 A2989 RMK A01 T02620192  RH  065%=      5-min Rain = 0
KCR1 162053Z 35007G12KT 26/20 A2989 RMK A01 T02640195  RH  066%=      5-min Rain = 0
KCR1 162054Z 01007KT 27/19 A2989 RMK A01 T02650191  RH  064%=      5-min Rain = 0
KCR1 162055Z 01009KT 27/19 A2988 RMK A01 T02650193  RH  064%=      5-min Rain = 0
KCR1 162056Z 03008KT 26/19 A2988 RMK A01 T02640189  RH  063%=      5-min Rain = 0
KCR1 162057Z 02008KT 26/19 A2988 RMK A01 T02620192  RH  065%=      5-min Rain = 0
KCR1 162058Z 02007KT 26/19 A2988 RMK A01 T02630193  RH  065%=      5-min Rain = 0
KCR1 162059Z 01007KT 26/19 A2988 RMK A01 T02640191  RH  064%=      5-min Rain = 0
KCR1 162100Z 02009KT 26/20 A2988 RMK A01 T02640195  RH  066%=      5-min Rain = 0
KCR1 162101Z 02008KT 26/20 A2988 RMK A01 T02640195  RH  066%=      5-min Rain = 0
KCR1 162102Z 01009KT 26/19 A2988 RMK A01 T02640192  RH  064%=      5-min Rain = 0
KCR1 162103Z 03008KT 26/19 A2988 RMK A01 T02620191  RH  065%=      5-min Rain = 0
KCR1 162104Z 02009KT 26/19 A2988 RMK A01 T02610193  RH  066%=      5-min Rain = 0
KCR1 162105Z 02009KT 26/19 A2988 RMK A01 T02610191  RH  065%=      5-min Rain = 0
KCR1 162106Z 01008KT 26/19 A2988 RMK A01 T02600189  RH  065%=      5-min Rain = 0
KCR1 162107Z 01007KT 26/19 A2988 RMK A01 T02590190  RH  066%=      5-min Rain = 0
KCR1 162108Z 01007KT 26/19 A2988 RMK A01 T02580190  RH  066%=      5-min Rain = 0
KCR1 162109Z 01007KT 26/20 A2988 RMK A01 T02580195  RH  068%=      5-min Rain = 0
KCR1 162110Z 36008KT 26/19 A2988 RMK A01 T02590192  RH  067%=      5-min Rain = 0
KCR1 162111Z 01007KT 26/19 A2988 RMK A01 T02590192  RH  066%=      5-min Rain = 0
KCR1 162112Z 00007KT 26/19 A2988 RMK A01 T02590192  RH  067%=      5-min Rain = 0
KCR1 162113Z 35008KT 26/19 A2988 RMK A01 T02580194  RH  068%=      5-min Rain = 0
KCR1 162114Z 35009KT 26/19 A2988 RMK A01 T02590191  RH  066%=      5-min Rain = 0
KCR1 162115Z 36008KT 26/19 A2988 RMK A01 T02580189  RH  066%=      5-min Rain = 0
KCR1 162116Z 34009KT 26/19 A2988 RMK A01 T02570191  RH  067%=      5-min Rain = 0
KCR1 162117Z 35008KT 26/19 A2988 RMK A01 T02570189  RH  066%=      5-min Rain = 0
KCR1 162118Z 34007KT 26/19 A2988 RMK A01 T02560190  RH  067%=      5-min Rain = 0
KCR1 162119Z 01007KT 26/19 A2989 RMK A01 T02580191  RH  067%=      5-min Rain = 0
KCR1 162120Z 01007KT 26/19 A2989 RMK A01 T02590190  RH  066%=      5-min Rain = 0
KCR1 162121Z 01009KT 26/19 A2989 RMK A01 T02590191  RH  066%=      5-min Rain = 0
KCR1 162122Z 36009KT 26/19 A2989 RMK A01 T02580191  RH  067%=      5-min Rain = 0
KCR1 162123Z 36008KT 26/19 A2988 RMK A01 T02570188  RH  066%=      5-min Rain = 0
KCR1 162124Z 36007KT 26/19 A2988 RMK A01 T02550189  RH  067%=      5-min Rain = 0
KCR1 162125Z 35005KT 26/19 A2988 RMK A01 T02550189  RH  067%=      5-min Rain = 0
KCR1 162126Z 36006KT 26/19 A2988 RMK A01 T02550188  RH  067%=      5-min Rain = 0
KCR1 162127Z 35006KT 25/19 A2988 RMK A01 T02540187  RH  066%=      5-min Rain = 0
KCR1 162128Z 02005KT 25/19 A2988 RMK A01 T02540191  RH  068%=      5-min Rain = 0
KCR1 162129Z 04006KT 26/19 A2988 RMK A01 T02550190  RH  067%=      5-min Rain = 0
KCR1 162130Z 02006KT 26/19 A2988 RMK A01 T02580194  RH  068%=      5-min Rain = 0
KCR1 162131Z 02005KT 26/19 A2988 RMK A01 T02600189  RH  065%=      5-min Rain = 0
KCR1 162132Z 02004KT 26/19 A2988 RMK A01 T02600190  RH  065%=      5-min Rain = 0
KCR1 162133Z 04002KT 26/19 A2988 RMK A01 T02600187  RH  064%=      5-min Rain = 0
KCR1 162134Z 02004KT 26/19 A2988 RMK A01 T02590192  RH  066%=      5-min Rain = 0
KCR1 162135Z 35004KT 26/19 A2988 RMK A01 T02610191  RH  065%=      5-min Rain = 0
KCR1 162136Z 33005KT 26/19 A2988 RMK A01 T02620190  RH  064%=      5-min Rain = 0
KCR1 162137Z 33004KT 26/19 A2988 RMK A01 T02620189  RH  064%=      5-min Rain = 0
KCR1 162138Z 32004KT 26/19 A2988 RMK A01 T02630189  RH  064%=      5-min Rain = 0
KCR1 162139Z 31004KT 26/19 A2988 RMK A01 T02630188  RH  064%=      5-min Rain = 0
KCR1 162140Z 31003KT 26/19 A2987 RMK A01 T02620186  RH  063%=      5-min Rain = 0
KCR1 162141Z 33004KT 26/19 A2987 RMK A01 T02610187  RH  064%=      5-min Rain = 0
KCR1 162142Z 32003KT 26/19 A2987 RMK A01 T02610187  RH  064%=      5-min Rain = 0
KCR1 162143Z 34003KT 26/19 A2987 RMK A01 T02610190  RH  065%=      5-min Rain = 0
KCR1 162144Z 34004KT 26/19 A2987 RMK A01 T02630185  RH  062%=      5-min Rain = 0
KCR1 162145Z 32002KT 26/19 A2987 RMK A01 T02630188  RH  063%=      5-min Rain = 0
KCR1 162146Z 24000KT 26/18 A2987 RMK A01 T02640184  RH  061%=      5-min Rain = 0
KCR1 162147Z 27000KT 27/18 A2987 RMK A01 T02650184  RH  061%=      5-min Rain = 0
KCR1 162148Z 27000KT 27/18 A2987 RMK A01 T02660182  RH  060%=      5-min Rain = 0
KCR1 162149Z 15002KT 27/19 A2987 RMK A01 T02660186  RH  061%=      5-min Rain = 0
KCR1 162150Z 18004KT 27/19 A2987 RMK A01 T02680189  RH  062%=      5-min Rain = 0
KCR1 162151Z 18003KT 27/19 A2987 RMK A01 T02680186  RH  060%=      5-min Rain = 0
KCR1 162152Z 19003KT 27/18 A2987 RMK A01 T02670181  RH  059%=      5-min Rain = 0
KCR1 162153Z 21001KT 27/18 A2987 RMK A01 T02660182  RH  060%=      5-min Rain = 0
KCR1 162154Z 02000KT 27/18 A2987 RMK A01 T02660181  RH  060%=      5-min Rain = 0
KCR1 162155Z 05002KT 27/19 A2987 RMK A01 T02660186  RH  061%=      5-min Rain = 0
KCR1 162156Z 06002KT 27/19 A2988 RMK A01 T02660185  RH  061%=      5-min Rain = 0
KCR1 162157Z 07002KT 27/18 A2988 RMK A01 T02660184  RH  061%=      5-min Rain = 0
KCR1 162158Z 10003KT 27/19 A2988 RMK A01 T02670185  RH  061%=      5-min Rain = 0
KCR1 162159Z 08003KT 27/19 A2988 RMK A01 T02670187  RH  061%=      5-min Rain = 0
KCR1 162200Z 07002KT 27/19 A2988 RMK A01 T02670188  RH  062%=      5-min Rain = 0
KCR1 162201Z 08002KT 27/19 A2988 RMK A01 T02690186  RH  061%=      5-min Rain = 0
KCR1 162202Z 03002KT 27/19 A2988 RMK A01 T02690187  RH  061%=      5-min Rain = 0
KCR1 162203Z 00005KT 27/19 A2988 RMK A01 T02700189  RH  061%=      5-min Rain = 0
KCR1 162204Z 34003KT 27/19 A2988 RMK A01 T02720187  RH  060%=      5-min Rain = 0
KCR1 162205Z 04005KT 27/19 A2987 RMK A01 T02730189  RH  060%=      5-min Rain = 0
KCR1 162206Z 04002KT 27/19 A2987 RMK A01 T02710185  RH  059%=      5-min Rain = 0
KCR1 162207Z 04003KT 27/19 A2987 RMK A01 T02690189  RH  061%=      5-min Rain = 0
KCR1 162208Z 06004KT 27/19 A2987 RMK A01 T02690189  RH  062%=      5-min Rain = 0
KCR1 162209Z 06004KT 27/19 A2987 RMK A01 T02700192  RH  063%=      5-min Rain = 0
KCR1 162210Z 06005KT 27/19 A2987 RMK A01 T02710187  RH  060%=      5-min Rain = 0
KCR1 162211Z 04007KT 27/19 A2987 RMK A01 T02720186  RH  059%=      5-min Rain = 0
KCR1 162212Z 03007KT 27/19 A2987 RMK A01 T02710188  RH  060%=      5-min Rain = 0
KCR1 162213Z 00006KT 27/19 A2987 RMK A01 T02720189  RH  061%=      5-min Rain = 0
KCR1 162214Z 33003KT 27/19 A2987 RMK A01 T02720185  RH  059%=      5-min Rain = 0
KCR1 162215Z 33004KT 27/19 A2987 RMK A01 T02730187  RH  059%=      5-min Rain = 0
KCR1 162216Z 32005KT 27/19 A2987 RMK A01 T02740188  RH  059%=      5-min Rain = 0
KCR1 162217Z 34004KT 27/19 A2987 RMK A01 T02740185  RH  058%=      5-min Rain = 0
KCR1 162218Z 01005KT 27/19 A2987 RMK A01 T02740186  RH  059%=      5-min Rain = 0
KCR1 162219Z 03007KT 27/19 A2987 RMK A01 T02740189  RH  060%=      5-min Rain = 0
KCR1 162220Z 03006KT 28/19 A2987 RMK A01 T02750189  RH  059%=      5-min Rain = 0
KCR1 162221Z 02007KT 28/19 A2987 RMK A01 T02760192  RH  060%=      5-min Rain = 0
KCR1 162222Z 03006KT 28/19 A2987 RMK A01 T02770188  RH  059%=      5-min Rain = 0
KCR1 162223Z 03005KT 28/19 A2987 RMK A01 T02760190  RH  059%=      5-min Rain = 0
KCR1 162224Z 04005KT 28/19 A2987 RMK A01 T02760188  RH  059%=      5-min Rain = 0
KCR1 162225Z 04004KT 28/18 A2987 RMK A01 T02770181  RH  056%=      5-min Rain = 0
KCR1 162226Z 04003KT 28/18 A2987 RMK A01 T02760184  RH  057%=      5-min Rain = 0
KCR1 162227Z 05005KT 28/19 A2987 RMK A01 T02760188  RH  059%=      5-min Rain = 0
KCR1 162228Z 04006KT 28/19 A2987 RMK A01 T02770188  RH  058%=      5-min Rain = 0
KCR1 162229Z 03008KT 28/19 A2987 RMK A01 T02780185  RH  057%=      5-min Rain = 0
KCR1 162230Z 04005KT 28/19 A2987 RMK A01 T02760186  RH  058%=      5-min Rain = 0
KCR1 162231Z 01005KT 28/19 A2987 RMK A01 T02760186  RH  058%=      5-min Rain = 0
KCR1 162232Z 02006KT 28/19 A2987 RMK A01 T02750186  RH  058%=      5-min Rain = 0
KCR1 162233Z 02007KT 28/19 A2987 RMK A01 T02750185  RH  058%=      5-min Rain = 0
KCR1 162234Z 02004KT 28/19 A2987 RMK A01 T02760185  RH  058%=      5-min Rain = 0
KCR1 162235Z 02005KT 28/19 A2987 RMK A01 T02770189  RH  059%=      5-min Rain = 0
KCR1 162236Z 01007KT 28/19 A2987 RMK A01 T02780187  RH  058%=      5-min Rain = 0
KCR1 162237Z 01008KT 28/18 A2987 RMK A01 T02780179  RH  055%=      5-min Rain = 0
KCR1 162238Z 03008KT 28/18 A2987 RMK A01 T02780182  RH  056%=      5-min Rain = 0
KCR1 162239Z 03007KT 28/18 A2987 RMK A01 T02790180  RH  055%=      5-min Rain = 0
KCR1 162240Z 02008KT 28/18 A2987 RMK A01 T02800184  RH  056%=      5-min Rain = 0
KCR1 162241Z 00007KT 28/18 A2987 RMK A01 T02820182  RH  055%=      5-min Rain = 0
KCR1 162242Z 01005KT 28/18 A2987 RMK A01 T02810181  RH  055%=      5-min Rain = 0
KCR1 162243Z 02005KT 28/18 A2987 RMK A01 T02800180  RH  055%=      5-min Rain = 0
KCR1 162244Z 02005KT 28/18 A2987 RMK A01 T02790181  RH  055%=      5-min Rain = 0
KCR1 162245Z 04005KT 28/18 A2987 RMK A01 T02780182  RH  056%=      5-min Rain = 0
KCR1 162246Z 04005KT 28/19 A2987 RMK A01 T02770185  RH  057%=      5-min Rain = 0
KCR1 162247Z 04007KT 28/18 A2987 RMK A01 T02780184  RH  057%=      5-min Rain = 0
KCR1 162248Z 03007KT 28/18 A2987 RMK A01 T02770184  RH  057%=      5-min Rain = 0
KCR1 162249Z 01007KT 28/19 A2987 RMK A01 T02770187  RH  058%=      5-min Rain = 0
KCR1 162250Z 02008KT 28/18 A2987 RMK A01 T02790183  RH  056%=      5-min Rain = 0
KCR1 162251Z 01007KT 28/18 A2987 RMK A01 T02800183  RH  056%=      5-min Rain = 0
KCR1 162252Z 01005KT 28/18 A2987 RMK A01 T02790182  RH  056%=      5-min Rain = 0
KCR1 162253Z 01005KT 28/18 A2987 RMK A01 T02770181  RH  056%=      5-min Rain = 0
KCR1 162254Z 02006KT 28/19 A2987 RMK A01 T02770187  RH  058%=      5-min Rain = 0
KCR1 162255Z 04006KT 28/19 A2987 RMK A01 T02790186  RH  057%=      5-min Rain = 0
KCR1 162256Z 03007KT 28/19 A2987 RMK A01 T02800185  RH  056%=      5-min Rain = 0
KCR1 162257Z 04007KT 28/18 A2987 RMK A01 T02800183  RH  055%=      5-min Rain = 0
KCR1 162258Z 05004KT 28/18 A2987 RMK A01 T02790180  RH  055%=      5-min Rain = 0
KCR1 162259Z 05005KT 28/18 A2987 RMK A01 T02790182  RH  056%=      5-min Rain = 0
KCR1 162300Z 03006KT 28/18 A2987 RMK A01 T02780180  RH  055%=      5-min Rain = 0
KCR1 162301Z 05005KT 28/18 A2987 RMK A01 T02780181  RH  055%=      5-min Rain = 0
KCR1 162302Z 02007KT 28/18 A2987 RMK A01 T02780184  RH  056%=      5-min Rain = 0
KCR1 162303Z 02008KT 28/18 A2987 RMK A01 T02800182  RH  055%=      5-min Rain = 0
KCR1 162304Z 02007KT 28/18 A2987 RMK A01 T02810178  RH  053%=      5-min Rain = 0
KCR1 162305Z 02005KT 28/18 A2986 RMK A01 T02800182  RH  055%=      5-min Rain = 0
KCR1 162306Z 01005KT 28/18 A2986 RMK A01 T02810179  RH  054%=      5-min Rain = 0
KCR1 162307Z 01006KT 28/18 A2986 RMK A01 T02810179  RH  054%=      5-min Rain = 0
KCR1 162308Z 02006KT 28/18 A2986 RMK A01 T02810182  RH  055%=      5-min Rain = 0
KCR1 162309Z 03008KT 28/19 A2986 RMK A01 T02810185  RH  056%=      5-min Rain = 0
KCR1 162310Z 03008KT 28/18 A2986 RMK A01 T02810183  RH  055%=      5-min Rain = 0
KCR1 162311Z 03006KT 28/19 A2986 RMK A01 T02800185  RH  056%=      5-min Rain = 0
KCR1 162312Z 03005KT 28/18 A2986 RMK A01 T02790183  RH  056%=      5-min Rain = 0
KCR1 162313Z 06005KT 28/18 A2986 RMK A01 T02790183  RH  056%=      5-min Rain = 0
KCR1 162314Z 07006KT 28/18 A2986 RMK A01 T02790180  RH  055%=      5-min Rain = 0
KCR1 162315Z 05005KT 28/18 A2986 RMK A01 T02780182  RH  056%=      5-min Rain = 0
KCR1 162316Z 04005KT 28/18 A2986 RMK A01 T02780180  RH  055%=      5-min Rain = 0
KCR1 162317Z 04008KT 28/18 A2986 RMK A01 T02780181  RH  056%=      5-min Rain = 0
KCR1 162318Z 04008KT 28/18 A2986 RMK A01 T02780183  RH  056%=      5-min Rain = 0
KCR1 162319Z 02007KT 28/18 A2986 RMK A01 T02780182  RH  056%=      5-min Rain = 0
KCR1 162320Z 00007KT 28/19 A2986 RMK A01 T02780186  RH  057%=      5-min Rain = 0
KCR1 162321Z 01009KT 28/18 A2986 RMK A01 T02790184  RH  056%=      5-min Rain = 0
KCR1 162322Z 02010KT 28/18 A2986 RMK A01 T02790182  RH  055%=      5-min Rain = 0
KCR1 162323Z 03009KT 28/18 A2986 RMK A01 T02770181  RH  056%=      5-min Rain = 0
KCR1 162324Z 02008KT 28/18 A2986 RMK A01 T02770181  RH  056%=      5-min Rain = 0
KCR1 162325Z 02007KT 28/18 A2986 RMK A01 T02770179  RH  055%=      5-min Rain = 0
KCR1 162326Z 01010KT 28/18 A2986 RMK A01 T02770178  RH  055%=      5-min Rain = 0
KCR1 162327Z 02009KT 28/18 A2986 RMK A01 T02760175  RH  054%=      5-min Rain = 0
KCR1 162328Z 02009KT 28/18 A2986 RMK A01 T02750177  RH  055%=      5-min Rain = 0
KCR1 162329Z 01009KT 28/18 A2986 RMK A01 T02750177  RH  055%=      5-min Rain = 0
KCR1 162330Z 02008KT 28/18 A2986 RMK A01 T02750176  RH  055%=      5-min Rain = 0
KCR1 162331Z 01008KT 27/18 A2986 RMK A01 T02740177  RH  055%=      5-min Rain = 0
KCR1 162332Z 03009KT 28/18 A2986 RMK A01 T02750180  RH  056%=      5-min Rain = 0
KCR1 162333Z 02008KT 28/18 A2986 RMK A01 T02750178  RH  055%=      5-min Rain = 0
KCR1 162334Z 01008KT 28/18 A2986 RMK A01 T02760178  RH  055%=      5-min Rain = 0
KCR1 162335Z 01010KT 28/18 A2986 RMK A01 T02760177  RH  055%=      5-min Rain = 0
KCR1 162336Z 01010KT 28/18 A2986 RMK A01 T02760175  RH  054%=      5-min Rain = 0
KCR1 162337Z 01009KT 28/17 A2986 RMK A01 T02760173  RH  053%=      5-min Rain = 0
KCR1 162338Z 03009KT 27/17 A2985 RMK A01 T02740174  RH  054%=      5-min Rain = 0
KCR1 162339Z 02008KT 27/17 A2985 RMK A01 T02740173  RH  054%=      5-min Rain = 0
KCR1 162340Z 03008KT 27/17 A2985 RMK A01 T02740174  RH  054%=      5-min Rain = 0
KCR1 162341Z 02009KT 27/17 A2985 RMK A01 T02740172  RH  054%=      5-min Rain = 0
KCR1 162342Z 03011KT 27/17 A2985 RMK A01 T02740173  RH  054%=      5-min Rain = 0
KCR1 162343Z 02011KT 27/17 A2985 RMK A01 T02740173  RH  054%=      5-min Rain = 0
KCR1 162344Z 00009KT 27/17 A2986 RMK A01 T02740174  RH  054%=      5-min Rain = 0
KCR1 162345Z 02009KT 27/17 A2986 RMK A01 T02740173  RH  054%=      5-min Rain = 0
KCR1 162346Z 01007KT 28/17 A2986 RMK A01 T02750174  RH  054%=      5-min Rain = 0
KCR1 162347Z 03008KT 28/17 A2986 RMK A01 T02750172  RH  053%=      5-min Rain = 0
KCR1 162348Z 02008KT 28/17 A2985 RMK A01 T02750172  RH  054%=      5-min Rain = 0
KCR1 162349Z 01008KT 28/17 A2985 RMK A01 T02750172  RH  053%=      5-min Rain = 0
KCR1 162350Z 01009KT 28/17 A2985 RMK A01 T02750169  RH  052%=      5-min Rain = 0
KCR1 162351Z 01009KT 28/17 A2986 RMK A01 T02750170  RH  053%=      5-min Rain = 0
KCR1 162352Z 02009KT 28/17 A2986 RMK A01 T02750168  RH  052%=      5-min Rain = 0
KCR1 162353Z 03008KT 28/17 A2986 RMK A01 T02750165  RH  051%=      5-min Rain = 0
KCR1 162354Z 02008KT 27/17 A2986 RMK A01 T02740168  RH  052%=      5-min Rain = 0
KCR1 162355Z 02010KT 28/17 A2986 RMK A01 T02750170  RH  053%=      5-min Rain = 0
KCR1 162356Z 02009KT 28/17 A2986 RMK A01 T02750165  RH  051%=      5-min Rain = 0
KCR1 162357Z 02009KT 28/17 A2986 RMK A01 T02750166  RH  051%=      5-min Rain = 0
KCR1 162358Z 02010KT 27/16 A2986 RMK A01 T02740164  RH  051%=      5-min Rain = 0
KCR1 162359Z 02010KT 27/16 A2986 RMK A01 T02740163  RH  051%=      5-min Rain = 0
KCR1 170000Z 02009KT 27/16 A2986 RMK A01 T02730161  RH  050%=      5-min Rain = 0
KCR1 170001Z 02008KT 27/16 A2986 RMK A01 T02730161  RH  050%=      5-min Rain = 0
KCR1 170002Z 02008KT 27/16 A2986 RMK A01 T02720162  RH  051%=      5-min Rain = 0
KCR1 170003Z 02008KT 27/17 A2986 RMK A01 T02730167  RH  052%=      5-min Rain = 0
KCR1 170004Z 02007KT 27/17 A2986 RMK A01 T02730169  RH  053%=      5-min Rain = 0
KCR1 170005Z 02006KT 27/17 A2985 RMK A01 T02730170  RH  053%=      5-min Rain = 0
KCR1 170006Z 02007KT 27/17 A2985 RMK A01 T02740168  RH  052%=      5-min Rain = 0
KCR1 170007Z 01006KT 28/17 A2985 RMK A01 T02750166  RH  052%=      5-min Rain = 0
KCR1 170008Z 00008KT 27/17 A2986 RMK A01 T02740166  RH  051%=      5-min Rain = 0
KCR1 170009Z 00009KT 27/16 A2986 RMK A01 T02740160  RH  050%=      5-min Rain = 0
KCR1 170010Z 36008KT 27/16 A2986 RMK A01 T02740163  RH  051%=      5-min Rain = 0
KCR1 170011Z 36008KT 27/17 A2986 RMK A01 T02730165  RH  052%=      5-min Rain = 0
KCR1 170012Z 36007KT 27/17 A2986 RMK A01 T02740166  RH  052%=      5-min Rain = 0
KCR1 170013Z 35007KT 27/17 A2986 RMK A01 T02740166  RH  052%=      5-min Rain = 0
KCR1 170014Z 35009KT 27/16 A2986 RMK A01 T02730163  RH  051%=      5-min Rain = 0
KCR1 170015Z 35009KT 27/16 A2986 RMK A01 T02740162  RH  051%=      5-min Rain = 0
KCR1 170016Z 35008KT 27/16 A2986 RMK A01 T02730162  RH  051%=      5-min Rain = 0
KCR1 170017Z 00007KT 27/17 A2986 RMK A01 T02730166  RH  052%=      5-min Rain = 0
KCR1 170018Z 00008KT 27/16 A2986 RMK A01 T02730164  RH  051%=      5-min Rain = 0
KCR1 170019Z 00008KT 27/17 A2986 RMK A01 T02730165  RH  052%=      5-min Rain = 0
KCR1 170020Z 00007KT 27/16 A2986 RMK A01 T02730164  RH  051%=      5-min Rain = 0
KCR1 170021Z 00008KT 27/17 A2986 RMK A01 T02720165  RH  052%=      5-min Rain = 0
KCR1 170022Z 00007KT 27/17 A2986 RMK A01 T02720167  RH  053%=      5-min Rain = 0
KCR1 170023Z 36008KT 27/17 A2986 RMK A01 T02720165  RH  052%=      5-min Rain = 0
KCR1 170024Z 00009KT 27/17 A2986 RMK A01 T02720165  RH  052%=      5-min Rain = 0
KCR1 170025Z 00007KT 27/17 A2986 RMK A01 T02710166  RH  053%=      5-min Rain = 0
KCR1 170026Z 01009KT 27/17 A2986 RMK A01 T02710167  RH  053%=      5-min Rain = 0
KCR1 170027Z 01009KT 27/17 A2986 RMK A01 T02710165  RH  052%=      5-min Rain = 0
KCR1 170028Z 01008KT 27/17 A2986 RMK A01 T02700166  RH  053%=      5-min Rain = 0
KCR1 170029Z 01008KT 27/17 A2986 RMK A01 T02700166  RH  053%=      5-min Rain = 0
KCR1 170030Z 01008KT 27/16 A2986 RMK A01 T02700164  RH  052%=      5-min Rain = 0
KCR1 170031Z 01007KT 27/17 A2986 RMK A01 T02700166  RH  053%=      5-min Rain = 0
KCR1 170032Z 02007KT 27/17 A2986 RMK A01 T02700167  RH  053%=      5-min Rain = 0
KCR1 170033Z 02008KT 27/17 A2986 RMK A01 T02700170  RH  054%=      5-min Rain = 0
KCR1 170034Z 01007KT 27/17 A2986 RMK A01 T02700170  RH  054%=      5-min Rain = 0
KCR1 170035Z 01008KT 27/17 A2986 RMK A01 T02690167  RH  054%=      5-min Rain = 0
KCR1 170036Z 01007KT 27/17 A2986 RMK A01 T02690169  RH  054%=      5-min Rain = 0
KCR1 170037Z 01008KT 27/17 A2986 RMK A01 T02690169  RH  054%=      5-min Rain = 0
KCR1 170038Z 01007KT 27/17 A2986 RMK A01 T02680168  RH  054%=      5-min Rain = 0
KCR1 170039Z 01008KT 27/17 A2987 RMK A01 T02680169  RH  054%=      5-min Rain = 0
KCR1 170040Z 01007KT 27/17 A2987 RMK A01 T02680167  RH  054%=      5-min Rain = 0
KCR1 170041Z 01006KT 27/17 A2987 RMK A01 T02670169  RH  055%=      5-min Rain = 0
KCR1 170042Z 01007KT 27/17 A2987 RMK A01 T02670169  RH  055%=      5-min Rain = 0
KCR1 170043Z 01009KT 27/17 A2987 RMK A01 T02670165  RH  054%=      5-min Rain = 0
KCR1 170044Z 01008KT 27/17 A2987 RMK A01 T02660165  RH  054%=      5-min Rain = 0
KCR1 170045Z 01007KT 27/17 A2987 RMK A01 T02670166  RH  054%=      5-min Rain = 0
KCR1 170046Z 01008KT 27/17 A2987 RMK A01 T02660166  RH  054%=      5-min Rain = 0
KCR1 170047Z 01006KT 27/17 A2987 RMK A01 T02660167  RH  054%=      5-min Rain = 0
KCR1 170048Z 01008KT 27/17 A2986 RMK A01 T02660166  RH  054%=      5-min Rain = 0
KCR1 170049Z 02007KT 27/16 A2986 RMK A01 T02650164  RH  054%=      5-min Rain = 0
KCR1 170050Z 02006KT 27/16 A2986 RMK A01 T02650163  RH  053%=      5-min Rain = 0
KCR1 170051Z 01006KT 27/16 A2986 RMK A01 T02650163  RH  053%=      5-min Rain = 0
KCR1 170052Z 02006KT 27/16 A2986 RMK A01 T02650164  RH  054%=      5-min Rain = 0
KCR1 170053Z 01007KT 26/16 A2986 RMK A01 T02640164  RH  054%=      5-min Rain = 0
KCR1 170054Z 01006KT 26/16 A2986 RMK A01 T02640163  RH  054%=      5-min Rain = 0
KCR1 170055Z 01006KT 26/16 A2986 RMK A01 T02630164  RH  054%=      5-min Rain = 0
KCR1 170056Z 01005KT 26/17 A2986 RMK A01 T02630165  RH  055%=      5-min Rain = 0
KCR1 170057Z 02005KT 26/17 A2986 RMK A01 T02630169  RH  056%=      5-min Rain = 0
KCR1 170058Z 01005KT 26/17 A2986 RMK A01 T02620168  RH  056%=      5-min Rain = 0
KCR1 170059Z 01006KT 26/17 A2986 RMK A01 T02620167  RH  056%=      5-min Rain = 0
KCR1 170100Z 01005KT 26/17 A2986 RMK A01 T02620168  RH  056%=      5-min Rain = 0
KCR1 170101Z 00005KT 26/17 A2986 RMK A01 T02620171  RH  057%=      5-min Rain = 0
KCR1 170102Z 01005KT 26/17 A2987 RMK A01 T02610173  RH  058%=      5-min Rain = 0
KCR1 170103Z 01005KT 26/17 A2987 RMK A01 T02600172  RH  058%=      5-min Rain = 0
KCR1 170104Z 01004KT 26/17 A2987 RMK A01 T02600174  RH  059%=      5-min Rain = 0
KCR1 170105Z 01006KT 26/17 A2987 RMK A01 T02600174  RH  059%=      5-min Rain = 0
KCR1 170106Z 01005KT 26/18 A2987 RMK A01 T02600175  RH  059%=      5-min Rain = 0
KCR1 170107Z 01005KT 26/18 A2987 RMK A01 T02590175  RH  060%=      5-min Rain = 0
KCR1 170108Z 01004KT 26/18 A2987 RMK A01 T02590179  RH  061%=      5-min Rain = 0
KCR1 170109Z 01005KT 26/18 A2987 RMK A01 T02580179  RH  062%=      5-min Rain = 0
KCR1 170110Z 02005KT 26/18 A2987 RMK A01 T02580179  RH  062%=      5-min Rain = 0
KCR1 170111Z 02006KT 26/18 A2987 RMK A01 T02570176  RH  061%=      5-min Rain = 0
KCR1 170112Z 02006KT 26/18 A2987 RMK A01 T02570178  RH  062%=      5-min Rain = 0
KCR1 170113Z 03006KT 26/18 A2987 RMK A01 T02560176  RH  061%=      5-min Rain = 0
KCR1 170114Z 03006KT 26/17 A2987 RMK A01 T02560174  RH  061%=      5-min Rain = 0
KCR1 170115Z 03005KT 26/18 A2987 RMK A01 T02550176  RH  061%=      5-min Rain = 0
KCR1 170116Z 03006KT 26/18 A2987 RMK A01 T02550175  RH  062%=      5-min Rain = 0
KCR1 170117Z 03006KT 25/18 A2987 RMK A01 T02540175  RH  061%=      5-min Rain = 0
KCR1 170118Z 03006KT 25/17 A2987 RMK A01 T02540174  RH  061%=      5-min Rain = 0
KCR1 170119Z 03006KT 25/17 A2987 RMK A01 T02540173  RH  061%=      5-min Rain = 0
KCR1 170120Z 03006KT 25/17 A2987 RMK A01 T02530173  RH  061%=      5-min Rain = 0
KCR1 170121Z 03005KT 25/18 A2987 RMK A01 T02530175  RH  062%=      5-min Rain = 0
KCR1 170122Z 03006KT 25/18 A2987 RMK A01 T02520175  RH  062%=      5-min Rain = 0
KCR1 170123Z 03006KT 25/18 A2987 RMK A01 T02510175  RH  062%=      5-min Rain = 0
KCR1 170124Z 03005KT 25/18 A2987 RMK A01 T02510175  RH  063%=      5-min Rain = 0
KCR1 170125Z 03005KT 25/18 A2987 RMK A01 T02500176  RH  064%=      5-min Rain = 0
KCR1 170126Z 03006KT 25/18 A2987 RMK A01 T02490176  RH  064%=      5-min Rain = 0
KCR1 170127Z 03006KT 25/18 A2987 RMK A01 T02490176  RH  064%=      5-min Rain = 0
KCR1 170128Z 03006KT 25/18 A2988 RMK A01 T02480176  RH  064%=      5-min Rain = 0
KCR1 170129Z 03006KT 25/18 A2988 RMK A01 T02470177  RH  065%=      5-min Rain = 0
KCR1 170130Z 03007KT 25/18 A2988 RMK A01 T02470177  RH  065%=      5-min Rain = 0
KCR1 170131Z 03006KT 25/18 A2988 RMK A01 T02460176  RH  065%=      5-min Rain = 0
KCR1 170132Z 03006KT 25/18 A2988 RMK A01 T02460176  RH  065%=      5-min Rain = 0
KCR1 170133Z 03006KT 25/18 A2988 RMK A01 T02450177  RH  066%=      5-min Rain = 0
KCR1 170134Z 02007KT 25/18 A2988 RMK A01 T02450177  RH  066%=      5-min Rain = 0
KCR1 170135Z 02007KT 24/18 A2988 RMK A01 T02440176  RH  066%=      5-min Rain = 0
KCR1 170136Z 02006KT 24/18 A2988 RMK A01 T02440176  RH  066%=      5-min Rain = 0
KCR1 170137Z 02006KT 24/18 A2988 RMK A01 T02430176  RH  066%=      5-min Rain = 0
KCR1 170138Z 02006KT 24/18 A2988 RMK A01 T02430177  RH  067%=      5-min Rain = 0
KCR1 170139Z 02005KT 24/18 A2988 RMK A01 T02420177  RH  067%=      5-min Rain = 0
KCR1 170140Z 02006KT 24/18 A2988 RMK A01 T02410178  RH  068%=      5-min Rain = 0
KCR1 170141Z 02005KT 24/18 A2988 RMK A01 T02410178  RH  068%=      5-min Rain = 0
KCR1 170142Z 02005KT 24/18 A2988 RMK A01 T02400179  RH  069%=      5-min Rain = 0
KCR1 170143Z 02005KT 24/18 A2988 RMK A01 T02390179  RH  069%=      5-min Rain = 0
KCR1 170144Z 02005KT 24/18 A2988 RMK A01 T02380180  RH  070%=      5-min Rain = 0
KCR1 170145Z 02005KT 24/18 A2988 RMK A01 T02370180  RH  070%=      5-min Rain = 0
KCR1 170146Z 02005KT 24/18 A2988 RMK A01 T02360181  RH  071%=      5-min Rain = 0
KCR1 170147Z 02005KT 24/18 A2988 RMK A01 T02360181  RH  072%=      5-min Rain = 0
KCR1 170148Z 02005KT 24/18 A2988 RMK A01 T02350181  RH  072%=      5-min Rain = 0
KCR1 170149Z 02006KT 23/18 A2988 RMK A01 T02340181  RH  072%=      5-min Rain = 0
KCR1 170150Z 02006KT 23/18 A2988 RMK A01 T02340182  RH  073%=      5-min Rain = 0
KCR1 170151Z 02006KT 23/18 A2988 RMK A01 T02330181  RH  073%=      5-min Rain = 0
KCR1 170152Z 03006KT 23/18 A2988 RMK A01 T02330181  RH  073%=      5-min Rain = 0
KCR1 170153Z 03006KT 23/18 A2988 RMK A01 T02330182  RH  073%=      5-min Rain = 0
KCR1 170154Z 03007KT 23/18 A2988 RMK A01 T02320181  RH  073%=      5-min Rain = 0
KCR1 170155Z 03007KT 23/18 A2988 RMK A01 T02320181  RH  073%=      5-min Rain = 0
KCR1 170156Z 03007KT 23/18 A2988 RMK A01 T02320182  RH  073%=      5-min Rain = 0
KCR1 170157Z 04007KT 23/18 A2988 RMK A01 T02320181  RH  073%=      5-min Rain = 0
KCR1 170158Z 04007KT 23/18 A2988 RMK A01 T02320181  RH  073%=      5-min Rain = 0
KCR1 170159Z 04008KT 23/18 A2988 RMK A01 T02310180  RH  073%=      5-min Rain = 0
KCR1 170200Z 03007KT 23/18 A2988 RMK A01 T02320180  RH  073%=      5-min Rain = 0
KCR1 170201Z 03006KT 23/18 A2988 RMK A01 T02310180  RH  073%=      5-min Rain = 0
KCR1 170202Z 03006KT 23/18 A2988 RMK A01 T02310181  RH  073%=      5-min Rain = 0
KCR1 170203Z 03006KT 23/18 A2988 RMK A01 T02310182  RH  074%=      5-min Rain = 0
KCR1 170204Z 03006KT 23/18 A2988 RMK A01 T02310182  RH  074%=      5-min Rain = 0
KCR1 170205Z 03006KT 23/18 A2989 RMK A01 T02300183  RH  075%=      5-min Rain = 0
KCR1 170206Z 04005KT 23/18 A2989 RMK A01 T02290182  RH  075%=      5-min Rain = 0
KCR1 170207Z 04005KT 23/18 A2989 RMK A01 T02290182  RH  075%=      5-min Rain = 0
KCR1 170208Z 04006KT 23/18 A2989 RMK A01 T02290182  RH  075%=      5-min Rain = 0
KCR1 170209Z 04006KT 23/18 A2989 RMK A01 T02290182  RH  075%=      5-min Rain = 0
KCR1 170210Z 04006KT 23/18 A2989 RMK A01 T02290182  RH  075%=      5-min Rain = 0
KCR1 170211Z 04006KT 23/18 A2989 RMK A01 T02280182  RH  075%=      5-min Rain = 0
KCR1 170212Z 04006KT 23/18 A2989 RMK A01 T02270182  RH  076%=      5-min Rain = 0
KCR1 170213Z 04006KT 23/18 A2989 RMK A01 T02270183  RH  076%=      5-min Rain = 0
KCR1 170214Z 04006KT 23/18 A2989 RMK A01 T02270183  RH  076%=      5-min Rain = 0
KCR1 170215Z 03006KT 23/18 A2989 RMK A01 T02260183  RH  076%=      5-min Rain = 0
KCR1 170216Z 03006KT 23/18 A2989 RMK A01 T02260182  RH  076%=      5-min Rain = 0
KCR1 170217Z 04006KT 23/18 A2989 RMK A01 T02260183  RH  077%=      5-min Rain = 0
KCR1 170218Z 03005KT 23/18 A2989 RMK A01 T02250183  RH  077%=      5-min Rain = 0
KCR1 170219Z 04005KT 23/18 A2989 RMK A01 T02250183  RH  077%=      5-min Rain = 0
KCR1 170220Z 04005KT 23/18 A2989 RMK A01 T02250184  RH  078%=      5-min Rain = 0
KCR1 170221Z 04005KT 22/18 A2989 RMK A01 T02240184  RH  078%=      5-min Rain = 0
KCR1 170222Z 03006KT 22/18 A2989 RMK A01 T02240183  RH  078%=      5-min Rain = 0
KCR1 170223Z 04006KT 22/18 A2989 RMK A01 T02230183  RH  078%=      5-min Rain = 0
KCR1 170224Z 04006KT 22/18 A2989 RMK A01 T02230183  RH  078%=      5-min Rain = 0
KCR1 170225Z 04005KT 22/18 A2989 RMK A01 T02230183  RH  078%=      5-min Rain = 0
KCR1 170226Z 03005KT 22/18 A2989 RMK A01 T02230183  RH  078%=      5-min Rain = 0
KCR1 170227Z 03005KT 22/18 A2989 RMK A01 T02230183  RH  078%=      5-min Rain = 0
KCR1 170228Z 03004KT 22/18 A2989 RMK A01 T02230183  RH  078%=      5-min Rain = 0
KCR1 170229Z 02004KT 22/18 A2989 RMK A01 T02230183  RH  078%=      5-min Rain = 0
KCR1 170230Z 02004KT 22/18 A2989 RMK A01 T02230184  RH  078%=      5-min Rain = 0
KCR1 170231Z 02003KT 22/18 A2989 RMK A01 T02230184  RH  079%=      5-min Rain = 0
KCR1 170232Z 02003KT 22/18 A2989 RMK A01 T02220183  RH  078%=      5-min Rain = 0
KCR1 170233Z 01003KT 22/18 A2989 RMK A01 T02220182  RH  078%=      5-min Rain = 0
KCR1 170234Z 01002KT 22/18 A2989 RMK A01 T02230183  RH  078%=      5-min Rain = 0
KCR1 170235Z 00002KT 22/18 A2989 RMK A01 T02230182  RH  077%=      5-min Rain = 0
KCR1 170236Z 36002KT 22/18 A2989 RMK A01 T02230181  RH  077%=      5-min Rain = 0
KCR1 170237Z 36002KT 22/18 A2989 RMK A01 T02240184  RH  078%=      5-min Rain = 0
KCR1 170238Z 35002KT 22/18 A2989 RMK A01 T02240184  RH  078%=      5-min Rain = 0
KCR1 170239Z 36002KT 22/18 A2989 RMK A01 T02240183  RH  077%=      5-min Rain = 0
KCR1 170240Z 00002KT 23/18 A2989 RMK A01 T02250182  RH  077%=      5-min Rain = 0
KCR1 170241Z 36003KT 23/18 A2989 RMK A01 T02250181  RH  076%=      5-min Rain = 0
KCR1 170242Z 36003KT 23/18 A2989 RMK A01 T02260181  RH  076%=      5-min Rain = 0
KCR1 170243Z 36003KT 23/18 A2989 RMK A01 T02260181  RH  076%=      5-min Rain = 0
KCR1 170244Z 00003KT 23/18 A2989 RMK A01 T02270180  RH  075%=      5-min Rain = 0
KCR1 170245Z 00003KT 23/18 A299 RMK A01 T02270179  RH  074%=      5-min Rain = 0
KCR1 170246Z 00002KT 23/18 A299 RMK A01 T02280180  RH  074%=      5-min Rain = 0
KCR1 170247Z 01002KT 23/18 A299 RMK A01 T02280180  RH  074%=      5-min Rain = 0
KCR1 170248Z 01002KT 23/18 A299 RMK A01 T02290180  RH  074%=      5-min Rain = 0
KCR1 170249Z 01003KT 23/18 A299 RMK A01 T02290179  RH  074%=      5-min Rain = 0
KCR1 170250Z 01003KT 23/18 A299 RMK A01 T02290178  RH  073%=      5-min Rain = 0
KCR1 170251Z 01003KT 23/18 A299 RMK A01 T02300178  RH  073%=      5-min Rain = 0
KCR1 170252Z 01003KT 23/18 A299 RMK A01 T02300179  RH  073%=      5-min Rain = 0
KCR1 170253Z 35004KT 23/18 A299 RMK A01 T02300181  RH  074%=      5-min Rain = 0
KCR1 170254Z 36004KT 23/18 A2989 RMK A01 T02280183  RH  075%=      5-min Rain = 0
KCR1 170255Z 01004KT 23/18 A2989 RMK A01 T02260183  RH  076%=      5-min Rain = 0
KCR1 170256Z 01004KT 23/18 A2989 RMK A01 T02250183  RH  077%=      5-min Rain = 0
KCR1 170257Z 02004KT 22/18 A2989 RMK A01 T02230182  RH  078%=      5-min Rain = 0
KCR1 170258Z 02004KT 22/18 A2989 RMK A01 T02220183  RH  078%=      5-min Rain = 0
KCR1 170259Z 02004KT 22/18 A2989 RMK A01 T02220184  RH  079%=      5-min Rain = 0
KCR1 170300Z 02004KT 22/18 A2989 RMK A01 T02210184  RH  079%=      5-min Rain = 0
KCR1 170301Z 02004KT 22/19 A2989 RMK A01 T02210185  RH  080%=      5-min Rain = 0
KCR1 170302Z 02004KT 22/18 A2989 RMK A01 T02200184  RH  080%=      5-min Rain = 0
KCR1 170303Z 03004KT 22/19 A2989 RMK A01 T02200185  RH  081%=      5-min Rain = 0
KCR1 170304Z 03004KT 22/19 A2989 RMK A01 T02190185  RH  081%=      5-min Rain = 0
KCR1 170305Z 03004KT 22/19 A299 RMK A01 T02180185  RH  082%=      5-min Rain = 0
KCR1 170306Z 02004KT 22/19 A299 RMK A01 T02180186  RH  082%=      5-min Rain = 0
KCR1 170307Z 01004KT 22/19 A299 RMK A01 T02170186  RH  083%=      5-min Rain = 0
KCR1 170308Z 02004KT 22/19 A299 RMK A01 T02170185  RH  082%=      5-min Rain = 0
KCR1 170309Z 02004KT 22/19 A299 RMK A01 T02170185  RH  082%=      5-min Rain = 0
KCR1 170310Z 02004KT 22/19 A299 RMK A01 T02160185  RH  082%=      5-min Rain = 0
KCR1 170311Z 01004KT 22/19 A299 RMK A01 T02160185  RH  083%=      5-min Rain = 0
KCR1 170312Z 01004KT 22/19 A299 RMK A01 T02160185  RH  083%=      5-min Rain = 0
KCR1 170313Z 01004KT 22/19 A299 RMK A01 T02160186  RH  083%=      5-min Rain = 0
KCR1 170314Z 01004KT 22/18 A299 RMK A01 T02160184  RH  082%=      5-min Rain = 0
KCR1 170315Z 01004KT 22/18 A299 RMK A01 T02160183  RH  082%=      5-min Rain = 0
KCR1 170316Z 01004KT 22/18 A299 RMK A01 T02160184  RH  082%=      5-min Rain = 0
KCR1 170317Z 01004KT 22/18 A299 RMK A01 T02170184  RH  082%=      5-min Rain = 0
KCR1 170318Z 00004KT 22/18 A299 RMK A01 T02160183  RH  082%=      5-min Rain = 0
KCR1 170319Z 00004KT 22/18 A299 RMK A01 T02170184  RH  081%=      5-min Rain = 0
KCR1 170320Z 00004KT 22/18 A299 RMK A01 T02170183  RH  081%=      5-min Rain = 0
KCR1 170321Z 00004KT 22/18 A299 RMK A01 T02180183  RH  080%=      5-min Rain = 0
KCR1 170322Z 00004KT 22/18 A299 RMK A01 T02190182  RH  079%=      5-min Rain = 0
KCR1 170323Z 00004KT 22/18 A299 RMK A01 T02200182  RH  079%=      5-min Rain = 0
KCR1 170324Z 00004KT 22/18 A299 RMK A01 T02200181  RH  078%=      5-min Rain = 0
KCR1 170325Z 00004KT 22/18 A299 RMK A01 T02210181  RH  078%=      5-min Rain = 0
KCR1 170326Z 01004KT 22/18 A299 RMK A01 T02220182  RH  078%=      5-min Rain = 0
KCR1 170327Z 00003KT 22/18 A299 RMK A01 T02220182  RH  078%=      5-min Rain = 0
KCR1 170328Z 00003KT 22/18 A299 RMK A01 T02220182  RH  078%=      5-min Rain = 0
KCR1 170329Z 00004KT 22/18 A299 RMK A01 T02210181  RH  078%=      5-min Rain = 0
KCR1 170330Z 01004KT 22/18 A299 RMK A01 T02220182  RH  078%=      5-min Rain = 0
KCR1 170331Z 01004KT 22/18 A299 RMK A01 T02220183  RH  079%=      5-min Rain = 0
KCR1 170332Z 01004KT 22/18 A299 RMK A01 T02210183  RH  079%=      5-min Rain = 0
KCR1 170333Z 01004KT 22/18 A299 RMK A01 T02200183  RH  080%=      5-min Rain = 0
KCR1 170334Z 01004KT 22/18 A299 RMK A01 T02190183  RH  080%=      5-min Rain = 0
KCR1 170335Z 01004KT 22/18 A299 RMK A01 T02190183  RH  080%=      5-min Rain = 0
KCR1 170336Z 00004KT 22/18 A299 RMK A01 T02180183  RH  081%=      5-min Rain = 0
KCR1 170337Z 00004KT 22/18 A299 RMK A01 T02180183  RH  081%=      5-min Rain = 0
KCR1 170338Z 00005KT 22/18 A299 RMK A01 T02180183  RH  081%=      5-min Rain = 0
KCR1 170339Z 00005KT 22/18 A299 RMK A01 T02180184  RH  081%=      5-min Rain = 0
KCR1 170340Z 00005KT 22/18 A2991 RMK A01 T02170183  RH  081%=      5-min Rain = 0
KCR1 170341Z 00005KT 22/18 A2991 RMK A01 T02170184  RH  081%=      5-min Rain = 0
KCR1 170342Z 00005KT 22/19 A2991 RMK A01 T02170185  RH  082%=      5-min Rain = 0
KCR1 170343Z 00004KT 22/19 A2991 RMK A01 T02170185  RH  082%=      5-min Rain = 0
KCR1 170344Z 00004KT 22/19 A2991 RMK A01 T02160185  RH  082%=      5-min Rain = 0
KCR1 170345Z 00004KT 22/18 A2991 RMK A01 T02160184  RH  082%=      5-min Rain = 0
KCR1 170346Z 36004KT 22/18 A2991 RMK A01 T02160183  RH  082%=      5-min Rain = 0
KCR1 170347Z 00004KT 22/18 A2991 RMK A01 T02170184  RH  081%=      5-min Rain = 0
KCR1 170348Z 36004KT 22/18 A2991 RMK A01 T02170184  RH  081%=      5-min Rain = 0
KCR1 170349Z 00004KT 22/18 A2991 RMK A01 T02170183  RH  081%=      5-min Rain = 0
KCR1 170350Z 36004KT 22/18 A2991 RMK A01 T02180184  RH  081%=      5-min Rain = 0
KCR1 170351Z 36004KT 22/18 A2991 RMK A01 T02180183  RH  081%=      5-min Rain = 0
KCR1 170352Z 35004KT 22/18 A2991 RMK A01 T02180183  RH  080%=      5-min Rain = 0
KCR1 170353Z 35004KT 22/18 A2991 RMK A01 T02190182  RH  080%=      5-min Rain = 0
KCR1 170354Z 36005KT 22/18 A2991 RMK A01 T02190183  RH  080%=      5-min Rain = 0
KCR1 170355Z 35005KT 22/18 A2991 RMK A01 T02190184  RH  080%=      5-min Rain = 0
KCR1 170356Z 35005KT 22/18 A2991 RMK A01 T02190184  RH  081%=      5-min Rain = 0
KCR1 170357Z 36005KT 22/18 A2991 RMK A01 T02190184  RH  081%=      5-min Rain = 0
KCR1 170358Z 35005KT 22/18 A2991 RMK A01 T02180184  RH  081%=      5-min Rain = 0
KCR1 170359Z 35005KT 22/18 A2991 RMK A01 T02180184  RH  081%=      5-min Rain = 0
KCR1 170400Z 35005KT 22/18 A2991 RMK A01 T02170183  RH  081%=      5-min Rain = 0
KCR1 170401Z 35004KT 22/18 A2991 RMK A01 T02170184  RH  081%=      5-min Rain = 0
KCR1 170402Z 35005KT 22/18 A2991 RMK A01 T02170184  RH  081%=      5-min Rain = 0
KCR1 170403Z 35005KT 22/18 A2991 RMK A01 T02170184  RH  081%=      5-min Rain = 0
KCR1 170404Z 34005KT 22/18 A2991 RMK A01 T02160184  RH  082%=      5-min Rain = 0
KCR1 170405Z 34004KT 22/18 A2991 RMK A01 T02170184  RH  082%=      5-min Rain = 0
KCR1 170406Z 34004KT 22/18 A2992 RMK A01 T02170184  RH  081%=      5-min Rain = 0
KCR1 170407Z 34004KT 22/18 A2992 RMK A01 T02170182  RH  081%=      5-min Rain = 0
KCR1 170408Z 34004KT 22/18 A2992 RMK A01 T02170183  RH  081%=      5-min Rain = 0
KCR1 170409Z 34004KT 22/18 A2992 RMK A01 T02160183  RH  081%=      5-min Rain = 0
KCR1 170410Z 35004KT 22/18 A2992 RMK A01 T02160183  RH  081%=      5-min Rain = 0
KCR1 170411Z 35005KT 22/18 A2992 RMK A01 T02160183  RH  082%=      5-min Rain = 0
KCR1 170412Z 35004KT 22/18 A2992 RMK A01 T02160183  RH  082%=      5-min Rain = 0
KCR1 170413Z 35004KT 22/18 A2992 RMK A01 T02150183  RH  082%=      5-min Rain = 0
KCR1 170414Z 35004KT 22/18 A2992 RMK A01 T02150184  RH  082%=      5-min Rain = 0
KCR1 170415Z 34004KT 22/18 A2992 RMK A01 T02150183  RH  082%=      5-min Rain = 0
KCR1 170416Z 34004KT 22/18 A2992 RMK A01 T02150183  RH  082%=      5-min Rain = 0
KCR1 170417Z 34004KT 22/18 A2992 RMK A01 T02150183  RH  082%=      5-min Rain = 0
KCR1 170418Z 34004KT 22/18 A2992 RMK A01 T02160182  RH  081%=      5-min Rain = 0
KCR1 170419Z 34004KT 22/18 A2992 RMK A01 T02160182  RH  081%=      5-min Rain = 0
KCR1 170420Z 34004KT 22/18 A2992 RMK A01 T02170182  RH  081%=      5-min Rain = 0
KCR1 170421Z 34004KT 22/18 A2992 RMK A01 T02170182  RH  081%=      5-min Rain = 0
KCR1 170422Z 34004KT 22/18 A2992 RMK A01 T02170182  RH  081%=      5-min Rain = 0
KCR1 170423Z 34004KT 22/18 A2992 RMK A01 T02170182  RH  080%=      5-min Rain = 0
KCR1 170424Z 34004KT 22/18 A2992 RMK A01 T02170181  RH  080%=      5-min Rain = 0
KCR1 170425Z 34004KT 22/18 A2992 RMK A01 T02170182  RH  081%=      5-min Rain = 0
KCR1 170426Z 34004KT 22/18 A2992 RMK A01 T02170184  RH  081%=      5-min Rain = 0
KCR1 170427Z 34005KT 22/18 A2992 RMK A01 T02160184  RH  082%=      5-min Rain = 0
KCR1 170428Z 34005KT 22/18 A2992 RMK A01 T02160183  RH  082%=      5-min Rain = 0
KCR1 170429Z 34005KT 22/18 A2992 RMK A01 T02150183  RH  082%=      5-min Rain = 0
KCR1 170430Z 34005KT 22/18 A2992 RMK A01 T02150183  RH  082%=      5-min Rain = 0
KCR1 170431Z 34005KT 21/18 A2992 RMK A01 T02140183  RH  083%=      5-min Rain = 0
KCR1 170432Z 35005KT 21/18 A2992 RMK A01 T02140183  RH  083%=      5-min Rain = 0
KCR1 170433Z 35005KT 21/18 A2992 RMK A01 T02130183  RH  083%=      5-min Rain = 0
KCR1 170434Z 35006KT 21/18 A2992 RMK A01 T02130183  RH  083%=      5-min Rain = 0
KCR1 170435Z 35005KT 21/18 A2992 RMK A01 T02120183  RH  083%=      5-min Rain = 0
KCR1 170436Z 35006KT 21/18 A2992 RMK A01 T02130184  RH  084%=      5-min Rain = 0
KCR1 170437Z 36005KT 21/18 A2992 RMK A01 T02120184  RH  084%=      5-min Rain = 0
KCR1 170438Z 01006KT 21/18 A2992 RMK A01 T02120184  RH  084%=      5-min Rain = 0
KCR1 170439Z 01006KT 21/18 A2992 RMK A01 T02110184  RH  085%=      5-min Rain = 0
KCR1 170440Z 02006KT 21/19 A2992 RMK A01 T02100185  RH  085%=      5-min Rain = 0
KCR1 170441Z 03007KT 21/18 A2992 RMK A01 T02100184  RH  085%=      5-min Rain = 0
KCR1 170442Z 03008KT 21/18 A2992 RMK A01 T02100183  RH  085%=      5-min Rain = 0
KCR1 170443Z 03008KT 21/18 A2992 RMK A01 T02100182  RH  084%=      5-min Rain = 0
KCR1 170444Z 02006KT 21/18 A2993 RMK A01 T02100182  RH  084%=      5-min Rain = 0
KCR1 170445Z 03006KT 21/18 A2993 RMK A01 T02100183  RH  085%=      5-min Rain = 0
KCR1 170446Z 03007KT 21/18 A2993 RMK A01 T02080182  RH  085%=      5-min Rain = 0
KCR1 170447Z 03007KT 21/18 A2993 RMK A01 T02080182  RH  085%=      5-min Rain = 0
KCR1 170448Z 03007KT 21/18 A2993 RMK A01 T02080181  RH  085%=      5-min Rain = 0
KCR1 170449Z 03006KT 21/18 A2993 RMK A01 T02080181  RH  085%=      5-min Rain = 0
KCR1 170450Z 03006KT 21/18 A2993 RMK A01 T02080181  RH  085%=      5-min Rain = 0
KCR1 170451Z 03006KT 21/18 A2993 RMK A01 T02070181  RH  085%=      5-min Rain = 0
KCR1 170452Z 02006KT 21/18 A2993 RMK A01 T02070181  RH  085%=      5-min Rain = 0
KCR1 170453Z 03006KT 21/18 A2993 RMK A01 T02070181  RH  085%=      5-min Rain = 0
KCR1 170454Z 03006KT 21/18 A2993 RMK A01 T02070181  RH  085%=      5-min Rain = 0
KCR1 170455Z 03006KT 21/18 A2993 RMK A01 T02070182  RH  086%=      5-min Rain = 0
KCR1 170456Z 03006KT 21/18 A2993 RMK A01 T02060182  RH  086%=      5-min Rain = 0
KCR1 170457Z 04006KT 21/18 A2993 RMK A01 T02060181  RH  086%=      5-min Rain = 0
KCR1 170458Z 04006KT 21/18 A2993 RMK A01 T02060180  RH  085%=      5-min Rain = 0
KCR1 170459Z 04005KT 21/18 A2993 RMK A01 T02060180  RH  085%=      5-min Rain = 0

Page generated in 0.0747 seconds.